0+  6+  12+  16+  18+  61+ 

„то искали и что нашли (за 23.12.2008)

„то искали и что нашли (за 23.12.2008)


  огда? уда?ќткуда?
G00:00:06/honda/367/115830/собеседование в абби
G00:00:25/honda/970/269310/когда прописывают оксибутират натри€
YA00:01:11/model/2007/1043452/беталипотрофин
G00:01:46/vw/101/40966/плагын
G00:02:58/model/5210/2673245/¬ысоцкий в хорошем качестве
YA00:03:55/model/1011/547850/матацыклы урал
G00:04:20/model/2817/1447892/значок бмв
R00:04:55/auspuff/10/1241/л€мбда
YA00:05:03/model/3822/1985628/харитонова уль€на €ковлевна
G00:06:15/vw/3682/1385289/качать с лететбит
AB00:06:18/model/681/378169/басенджи
TB00:07:51/vw/2505/955377/калоидное серебро
YA00:07:58/model/494/281324/африка реп
YA00:08:27/vw/2994/1144335/метро на €рославке
G00:09:04/model/823/449995/»«¬–јў≈Ќ÷џ ќЌЋј…Ќ
G00:09:15/vw/2136/801524/шуруповЄрт аег
G00:09:54/honda/507/158307/сленг инди
YA00:10:06/vw/1370/489977/зоосекс
G00:10:51/model/5431/2791510/курсантки
G00:11:13/model/5509/2832511/собственницы
G00:11:29/model/3566/1857690/как мастурбировать
G00:11:31/model/5204/2670344/ тетки италии
G00:11:41/vw/2403/914703/Ѕл€тки
YA00:11:44/model/4174/2157078/дун€ дун€ дун€ша
YA00:11:59/vw/2912/1115696/http://bugaga.ru
YA00:13:55/rally-club/1/23/подрамник ваз
G00:13:59/model/631/352110/кардебалет хор
G00:14:19/model/631/352110/кардебалет хор
YA00:14:56/vw/2346/890715/девочки в стрингах
M00:15:05/model/4630/2380787/влажна€ пилотка
M00:15:32/model/5583/новый год в австралии-википеди€
M00:16:05/renault/5/1099/влажна€ пилотка
G00:16:37/model/833/455023/говнорадио
G00:16:54/model/900/491651/порноточка
G00:17:01/auspuff/27/3229/тюнинг шкоды октави€
YA00:17:11/vw/466/163769/‘ары Vento
G00:17:16/model/2354/1207767/итить колотить
R00:17:31/honda/468/энди магдаун
G00:17:51/vw/2342/888897/надо вырасти
M00:18:00/vwagainst/6/1332/www/aviator/ru
G00:18:48/model/364/212378/—мотри не лопни
G00:20:36/kurilka/118/51742/¬олод€ ƒубинин пионер-герой
G00:20:39/vw/76/31270/генератор Golf
YA00:21:02/vw/1384/495675/моптухи
G00:21:16/model/3783/1965633/ћакс “равин
G00:22:02/model/5011/2575569/вставай чипидрос
G00:22:43/vw/3614/1364073/как дрочить лутше
G00:23:03/model/13/7395/выполнить cmd
YA00:23:15/model/5133/2634198/Gluhar
YA00:23:54/kurilka/47/18835/при какой температуре замерзает река
YA00:24:08/honda/43/12854/футболка ху€се
G00:24:37/model/3938/2042463/лечебный центр тимура фрунзе
G00:25:13/vw/21/8560/ј—я ƒ”–ј
YA00:26:36/honda/1408/354359/член в говне
YA00:27:16/renault/51/13949/зоофели€
YA00:28:16/model/5109/2624423/макбук g4
M00:29:38/auspuff/26/3108/астра выхлопна€ 2006
YA00:29:40/model/3882/2014935/аналик
YA00:31:11/model/4266/big black mom
G00:31:57/model/2496/1279786/ауди аллроуд
G00:32:59/model/2936/1512090/пасловицы
G00:33:09/listchannel/10ƒрова дл€ canon 5d скачать
G00:33:13/model/5783/2978386/в уггах зимой
G00:33:29/model/4411/2270350/помладше
G00:33:42/model/2936/1512090/пасловицы
M00:34:37/model/2482/1272840/рибок красовки
M00:35:31/nissan/5/1458/зоопорно
G00:36:39/vw/2446/932838/рюмки ликерные
YA00:36:44/honda/70/22106/доступные девочки
G00:37:06/vw/3256/1244994/одухотворенное лицо
YA00:37:16/model/1091/582516/пелотки крупным планом
YA00:38:02/model/1091/582516/пелотки крупным планом
YA00:38:42/model/1543/808054/говор€щие кот€тки
R00:39:33/nissan/12/3445/?all=nзоофилка
YA00:40:44/model/4460/2293045колонки excel буквы вместо цифр
G00:41:57/model/5094/2616951/ч≥п≥дрос
YA00:42:16/model/4460/2293045колонки excel буквы вместо цифр
M00:42:59/honda/1190/314778/секс с жывотными
YA00:44:28/model/3910/Techart Magnum
YA00:45:02/model/795/436387/голые бомжихи
G00:45:42/vw/3334/1270796/тест напида-раса
N00:46:51/renault/51/13949/зоофели€
G00:47:45/honda/1463/363168сасать
YA00:48:34/kurilka/79/34177/т≈Ћ≈÷ Ц Ёто пиздец и больше про этот знак мне сказать нечего.
G00:50:22/model/5585/2875035/рекорд скорости по ћ јƒу
M00:51:12/honda/92/28583/паорно
G00:52:20/vw/2744/1051110/5тдф
M00:52:38/kurilka/133/60053/antijob ru
M00:52:54/honda/1311/337277/ умасутра
YA00:52:57/model/3857/2002596/смореть порно
YA00:53:40/vw/2156/809678/тыж мен€ пидманула
YA00:54:11/model/450/255934/смс как проверить какие приход€т
G00:54:28/vw/1305/463012/доклады. речи
G00:55:13/vw/1305/463012/доклады. речи
YA00:55:21/model/2901/1494502/и кусты олеандров зелЄных «ажигали под вечер бутоны
G00:55:25/model/5368/2757103/гавно жрать
YA00:55:27/renault/13/3464/"пожелани€ с добрым утром"
G00:55:38/model/2300/1180110/гавно жрать
R00:56:03/honda/371/116986/передача карданный вал
YA00:56:53/model/1855/968511/порна хал€ва
YA00:57:47/vw/697/веерные опрыскиватели лобового стекла
G00:58:00/model/3672/1912030/клитар
R00:58:26/model/2284/1172734/C „≈ћ ѕ№ё“ ¬»— » » –ќћ
R00:58:42/model/2284/1172734/C „≈ћ ѕ№ё“ ¬»— » » –ќћ
G00:59:05/model/5486/2819663/2.1 огрызок
YA00:59:44/honda/689/205018/гуаху
YA00:59:45/nissan/5/1458/зоопорно
YA01:00:12/renault/51/13949/«оофели€
M01:00:21/model/2608/1338713/образцы клумб на даче
YA01:00:22/vwagainst/41/12772/приложение 2  и““
YA01:00:50/model/2737/1407571/тотоже
YA01:01:59/golflab/132/28687/pfgflftn cwtgktybt
G01:02:09/vw/3024/1156840/мастурбацы€
YA01:02:20/model/1555/814109/ан€ бесс
G01:02:48/model/679/376743/хантемансийск
G01:06:15/golflab/62/13823/шввм спб
G01:07:05/vw/3779/1413287/эспандер польза
M01:07:10/model/3875/2011319/мужские костюмы джуси кутюр
YA01:07:14/model/2326/1192430/курва л€рва
YA01:08:24/tushkan/2/322/увеличиваетс€ расход топлива в гольфе
YA01:11:14/golf-stream/33/5000/ремонт гольф2
G01:11:38/auspuff/20/2416/√лушитель орион форд
G01:12:20/golflab/25/4321/√ќЋ№‘ЋјЅќ–ј“ќ–»я
YA01:12:49/auspuff/22/2762/хенде акцент
G01:13:06/vw/1492/539938/спирт замерзает при
G01:13:29/vw/1492/539938/спирт замерзает при
G01:13:49/honda/829/236042/тайота купе
G01:14:18/golf-stream/26/4072/«амена пружин на јуди б4
R01:14:24/honda/518/160958/ошаны
G01:15:13/vw/1672/614655/говнорадио
YA01:15:59/vw-club/16/1289/–Ї–∞–Ї —В—О–љ–Є–љ–≥–Њ–≤–∞—В—М –≥–Њ–ї—М—Д 2?
G01:18:02/vw/3212/1228811/кто такой мучачос
YA01:18:05/model/4185/2162372/–Я–Њ—З–µ–Љ—Г –∞–є—Д–Њ–љ –≥–∞–≤–љ–Њ ?
G01:18:29/vw/2155/808860/воздержание вредно
G01:18:30/vw/1886/698664/естественный отбор сейчас
G01:18:59/golflab/73/16667/пружины на гольф 3
G01:19:02/honda/1463/363211/“акого кризиса не видел свет
YA01:20:01/model/5514/!(качество обуви тимберленд)
YA01:21:25/model/1568/821159/как сделать взрывпакет
M01:21:57/vw-club/30/установка парктроника на фольксваген поло
G01:22:26/model/3275/1693356/паховый герпес
G01:22:50/model/4269/2203506/фото покажи
YA01:24:20/model/1586/830523/÷элки
YA01:25:12/model/3100/1597093/зоофилка
G01:25:47/vw/431/154017/трынь-трынь
G01:26:11/model/4799/2466797/ест но худеет
G01:26:15/vw/2088/782701/писимо
G01:26:46/model/873/476684/„то значит бл€ть
YA01:27:01/vwagainst/46/14436/"масл€ный термостат"
YA01:28:01/nissan/32/9966/ ак спалить монитор
YA01:28:56/nissan/5/1458/зоопорно
G01:29:00/honda/672/200137/биба и боба
G01:29:30/vw/2121/795631/ƒецкие скаски
YA01:31:28/honda/586/178850/ јЋ≈Ќƒј–№ ћ”—ј ћќ“ќ–—
YA01:31:30/model/1091/582516/пелотки крупным планом
YA01:32:19/vw/3072/1175438/картинки голых тЄлок
YA01:32:37/model/3823/1986580/спать с печкой в машине
YA01:33:27/moto/5/987/девачки в купальниках
G01:34:16/vw/1186/417614/¬ижжит
YA01:35:51/honda/168/52310/девачки в купальниках
YA01:36:07/honda/690/205175/качественное порево
G01:36:49/vw/1925/715796/ижжога
YA01:37:28/nissan/5/1458/зоопорно
G01:38:12/model/4291/2213287istore account
G01:39:02/model/4152/2146917/¬ќ—ќ
G01:39:04/honda/401/125177/јриа ƒжовани
YA01:39:53/msq/ћакси (–ѕƒ)
YA01:39:59/model/690/383599/фолцваген поло
YA01:40:15/vw/3308/1262903/WWW.PSPX.RU
G01:41:50/vw/1894/701608/куклачеф
G01:43:03/vw/500/174121/бмв е9
YA01:43:13/model/3899/2022995/«имние типлицы
G01:44:13/model/3919/2033190/144000 избранные
G01:45:17/vw/1042/366500/барабан и щенка-бульдога
G01:48:49/model/4299/2216949/ты крута
G01:49:29/renault/23/6319/джал€б
YA01:50:48/honda/694/205965/фотки девок
G01:51:24/ps/5/815/digifant 2
G01:52:03/ps/5/815/digifant 2
G01:55:36/model/3855/2001489/ѕугачиха
YA01:56:34/megasquirt/ћакси (–ѕƒ)
G01:58:19/model/2025/1051206/двк-1
YA01:58:42/vw-club/24/2014/etka WV
G01:59:47/photo/24/7268/http://forum.ru-board.com
M02:00:56/model/1433/752020/еврасеть
YA02:00:57/model/4646/2389795/что такое креведко
G02:03:05/model/4559/2341646/виселье
G02:04:06/model/4211/2175719/дафлкот купить
YA02:04:38/kurilka/49/20033/ уннигулис
G02:05:44/model/4185/2162402/фотки одноклассниц
G02:07:32/vw/529/180883/195/50R15 цена можно б/у
YA02:09:05/model/2996/1541867/диско-7
YA02:09:14/model/4084/2114200/телеверсии спектаклей
YA02:10:45/vw-club/40/3369/фольксваген пассат универсал не открываетс€ замок двери багажника
G02:12:20/model/1222/641852/195/50R15 цена можно б/у
YA02:12:33/auspuff/6/708/спортивные глушители на субару
YA02:12:36/vw-club/39/3223/турбина дл€ agu
YA02:13:59/kurilka/133/60053/www.antijob.ru
G02:13:59/honda/176/54932/о € заинтригован
G02:14:22/model/3168/1636530/мамва
G02:14:37/vw-club/46/3816расшифровка комплектации
G02:14:39/model/3168/1636530/мамва
G02:15:46/model/3668/1909697/докажь
G02:16:00/vw/688/233866/докажь
YA02:16:40/honda/140/42976/диски авиатехнологии
YA02:17:13/model/1285/674989/демо диск dts
G02:20:23/vw/1121/393118/палки-дырки
G02:24:07/megasquirt/2/397/megasquirt toyota dli msextra
YA02:24:33/vwagainst/16/4429/шипованный Black Rocket
G02:24:58/model/4293/2214260/40летние тетки
YA02:26:35/golf-stream/12/1957/если € еду 170 км\ч
G02:26:39/vw/3446/1310629/ебать мозги
R02:26:40/auspuff/3/372/форд сиерра
YA02:27:13/model/3323/1719740/алиса- это пудинг, пудинг- это алиса
G02:28:29/model/1656/862946/фото дворец меньшикова
YA02:29:42/model/3889/2018831/сучара
G02:29:54/model/1289/677092/кокаин где вз€ть
AB02:30:04/model/418/239569/дислекси€
G02:30:06/model/823/449995/онлайн »звращенцы
YA02:31:16/honda/236/75208/бабы в бане
YA02:32:41/vw/2994/1144585/опасность мое второе им€
G02:33:50/model/1437/754142/гейзоо
YA02:35:46/golflab/120/26713/на оке сломалось сцепление
YA02:36:28/model/1685/878209/ЂЁмиссар нового мираї
YA02:36:33/honda/236/75208/бабы в бане
YA02:37:03/auspuff/14/1791/согнуть трубу
YA02:38:13/model/5600/2882741/минет 500
YA02:38:26/honda/1063/290431/ѕробежки по утрам, употребление безопасных продуктов питани€ и полный отказ от вредных привычек, могут существенно продлить ваше жалкое существование
G02:39:07/model/5799/2987371/изготовление фишек
YA02:41:39/model/5388/2768969ƒинамическа€ полоска
YA02:43:02/honda/660/196787/как стукануть мотор
G02:43:15/vw/1688/621693/ќ—Ќќ¬Ќџ≈ ќ“Ћ»„»я ј”ƒ» Ѕ3 ќ“ Ѕ4
G02:45:29/model/5876/3027677/совецкий комп
G02:46:27/model/2243/1152516/мурсилаго
YA02:50:07/model/1539/806482/тиьб
YA02:52:23/model/4073/2108950/чулки на девочках
G02:56:49/vw/40/16345/затопчу
G02:58:00/vw/594/200462/отсутствие цвета
G02:58:42/model/5275/2707295/либо выебу либо уволю
G03:00:05/photo/24/7268/http://forum.ru-board.com
G03:04:58/honda/907/254180/skydentist
YA03:05:55/vw/1285/455878/цэлки
G03:05:59/model/5688/2928241/как можно хорошо подрочить
YA03:06:42/honda/538/166792/как убить живого карпа
G03:07:00/honda/907/254180/skydentist
G03:07:10/honda/908/254232/skydentist
M03:14:24/golflab/15/audi80.spb.ru
G03:15:00/model/3166/1634995/ј € ни разу не была в ћалинках до этого
M03:16:26/golflab/15/audi80.spb.ru
YA03:16:31/vw-club/14/1065/сервис Audi в митино
YA03:16:47/renault/51/13949/«оофели€
YA03:18:26/honda/1236/323947/пежо и хонду интегру
M03:19:11/model/2663/1370291/грамоты похвальные листы
G03:19:16/vw/982/345139/huyindex.ru
YA03:19:26/vw/3344/1274193/winamp dts
G03:19:40/vw/982/345139/huyindex.ru
YA03:21:09/model/3588/1868865/”–ќƒЋ»¬џ≈ ‘ќ“ »
YA03:22:45/vw-club/14/1065/сервис Audi в митино
YA03:25:18/golflab/41/8169/масло 10w50
G03:26:42/model/1368/717719/божь€ каровка
G03:33:42/renault/43/11781/издивацца
G03:36:33/model/2942/1516123/Ђначальникї, Ђмастер-классї и Ђсеверстальї.
G03:36:41/model/1764/920187/“каатцеткоатль
G03:37:06/model/5437/2794920/презерваивы
YA03:37:26/model/2002/1041513/жизнь по пан€ти€м
YA03:41:48/vw-club/14/1065/ѕосоветуйте автосервис в ћитино Audi
G03:42:33/model/2709/1394372/отдавила €ички
YA03:46:19/model/3357/1740074/москали прокл€тые
G03:48:12/model/1585/830372/радуицца
YA03:51:41/model/3119/1608050/Ёсемески
G03:55:53/vw/1581/578330/не люблю хохлов
YA03:58:52/photo/24/7143/бэкфокус
YA03:59:01/photo/24/7143/бэкфокус
YA04:00:21/vw-club/24/1988/тюнинг дл€ фольксвагена гольф 2
G04:02:45/vw/3796/1419403/понос в метро
YA04:04:27/model/1564/819275/срок службы морфлот
G04:04:36/golflab/139/29864понос в метро
G04:05:01/vw/3492/1325614/обратно пропорцианально
YA04:05:20/model/4646/2389362/как сделать принтскрин
YA04:06:40/model/4646/2389362/как сделать принтскрин
G04:06:48/model/5115/2627375/пездатые телки
G04:07:27/model/5139/2637165/элондри€ лит
M04:10:05/model/1294/679529/facesitting
YA04:12:08/honda/168/52377/что такое вайт
G04:13:01/vw/280/105490/скрип€т пружины
YA04:13:53/honda/851/архив отрезание члена и кастраци€
G04:14:41/model/4540/2331173/Billing Zip Code
YA04:14:53/model/2416/1238565/шапка петушок
G04:15:09/model/2608/1338476/¬ейнек  обра
YA04:18:20/honda/578/176785/новогодние стенгазеты
YA04:20:17/renault/46/12592/ћинет нахал€ву
YA04:23:52/vwagainst/16/4359/абонет временно заблокирован
G04:25:14/vw/2390/909932/костюм рональда
M04:31:10/model/4611/2369751/кино "самое лучшее кино"
G04:31:55/vw/3199/1224458/ƒиана “ерешко
G04:35:54/vw/2430/926231/чЄ за песн€ шнапи
G04:46:20/vw/2783/1066413/поставить 6 Ёксплорер
G04:46:47/vw/2783/1066413/поставить 6 Ёксплорер
G04:49:53/photo/24/7268/forum.ru-board.com
YA04:51:52/model/2087/1079459/страпонщица
R04:52:04/golflab/80/18598/ћасло в коробку VW
R04:53:04/vwagainst/26/7882/Ќ»»Ўѕ 155-14 »-398
YA04:53:56/model/3663/1907399/ жипиэс
M04:56:06/model/3358/1740297/skyp.com
YA04:57:00/model/4442/2284849/„я“ ѕќ Ќќ„јћ
G04:59:42/vw/2468/940511/запретить сирены
M04:59:56/model/3071/1580981/школа минета
YA05:00:10/model/4600/2364071/написать смешную характеристику
G05:01:52/model/5001/2569723/если паспорт заканчиваетс€
G05:02:06/model/233/137343/блюющий смaйл
M05:09:40/vw-club/28/2324/газобалоное оборудование
YA05:10:15/vwagainst/16/4518/“емпературный режим в школах
M05:15:01/vw-club/28/2324/газобалоное оборудование
YA05:18:15/honda/1081/293779/фотки пизденок
YA05:18:21/honda/1081/293779/фотки пизденок
YA05:20:35/kurilka/178/81538/—дам квартиру бесплатно. —екс два раза в мес€ц
YA05:22:12/model/3786/1967183/бездарный талант
YA05:22:14/model/2465/1263741/фемдом фейсситтинг
G05:26:19/model/4022/2084768/√де бы подрочить
G05:28:50/model/4957/2547390/болотный кот
G05:28:51/vw-club/47/3853/звук двигател€
G05:30:03/model/4307/2220604/рзгон
YA05:32:41/vw/3346/1274963/фотки голых мужиков
G05:32:58/honda/139/42753/»ванопуло
N05:33:48/model/3634/1892512/москве бесплатный вайфай
M05:38:18/honda/249/79298/—исечка
G05:39:59/model/5422/2787696/кто така€ марус€
YA05:41:18/model/3805/1976727/некрасива€ попа
YA05:45:47/honda/1311/337336/новафилм.тв
G05:51:35/model/3543/1845446/–ита ’ейворд
YA05:53:47/model/4268/2202753список банков работающих
YA05:54:34/auspuff/8/997/замена прокладки коллекторов
G05:57:39/model/обсудим авто
G05:57:45/vw/816/282724/проблемы с шаровыми
G05:58:22/model/4816/2475622/гепати с
YA05:58:50/renault/45/12393/„то быстрее килобит или мегабит
G06:05:08/vw/469/164509/www.совинтел.ru
G06:05:12/vwagainst/40/12471/утренние смс
YA06:10:42/honda/1374/348895/загорелась лампа srs на L200
G06:15:46/vw/1431/515592/Ќеходи
YA06:20:04/vwagainst/12/3095/каркас москови€
G06:20:24/vw/3341/1273251/остров смотреть
G06:21:04/vw/1691/622644/пургу гнать
YA06:21:07/kurilka/104/45490/что сделать чтобы не клонило в сон
G06:21:24/honda/384/120511/как выебать кота
YA06:22:38/kurilka/94/40347/ интеллектуальные вопросы мужские
G06:23:47/vw/2155/808860/долгое воздержание
YA06:27:19/model/3388/1758828/ху€ндекс
YA06:28:32/auspuff/23/2863/„ем варитс€ нержавейка
YA06:29:14/vwagainst/16/4404/феррари подразделение ‘»ј“а
M06:30:53/kurilka/49/19844/чтобы звон€щие ко мне, слышали мелодию
G06:31:12/vw/3793/1418435/чтобы звон€щие ко мне, слышали мелодию
R06:33:37/honda/254/81095/?all=nаська 8080
M06:33:40/honda/672/200301/погода масква
YA06:36:16/model/1293/678947/вгон€й мен€ в долги, вгон€й
YA06:36:35/model/3540/1844145/лезби
YA06:39:27/model/1053/564962/lovemail.ru
G06:47:31/model/5094/2617028/заебись девочки
G06:47:58/model/5094/2617028/заебись девочки
G06:48:52/honda/1160/309162/как спиздить шестизнак
YA06:52:50/honda/154/46884/зоофилы шимпанзе
YA06:52:56/vw-club/41/3431/двигатель BSE
G06:53:30/photo/24/7268/forum.ru-board.com
YA06:53:45/model/3854/2001365/—З—В–Њ —В–∞–Ї–Њ–µ –≥–Є–і—А–∞–љ—В?
YA06:56:56/model/1562/817941/фото телок в трусах
YA06:57:20/honda/1134/наушники в акуре дл€ чего они
YA06:57:27/model/2391/1226103/пороли ли вас в детстве
M06:57:30/vw/60/24631/гидрометиоцентр
G06:59:41/model/1847/965162/укусила лошадь
YA07:01:14/vw/1231/435443/госпожа наст€
YA07:06:31/honda/403/126047/файл с avi-расширением
YA07:07:48/kurilka/63/26350/как уменьшить межстрочный интервал в ворд
G07:10:25/model/4539/2330218/можно ли жить без сладкого
YA07:10:51/model/2998/дед мароз с парфюмом фото
G07:11:55/model/3726/1938267/ѕрарок
YA07:12:12/model/4113/2127746/‘ќ“ќ√–ј‘»» “–ќЋЋ≈…Ѕ”—ќ¬ »« ‘–јЌ÷»»
YA07:12:53/vw/1370/489977/девушка дл€ зоосекса
YA07:15:50/model/2037/1056986/илюстрацы€
YA07:15:52/model/4204/2171758/–Р —В—Л —З–Њ –Љ–љ–µ –і–µ—А–Ј–Є—И—М?
G07:16:44/model/2345/1203102/кровь свинна€
YA07:18:08/golflab/110/24745/золотые руки мастеров 2008
G07:18:23/model/2345/1203102/кровь свинна€
YA07:22:24/model/2620/1345680/большие сисьски
G07:24:55/vw/3122/1197310/гольфы фото
M07:27:26/model/2034/1055373/бес купальника
G07:30:02/vw/152/60610/ћќ–ќ“ќ–»…
G07:30:15/vw/285/106860/сканер-переводчик
YA07:32:29/model/2620/1345680/большие сисьски
G07:33:03/model/4805/2470412/паруски
YA07:33:54/honda/1311/337336/новафилм.тв
YA07:34:01/model/2037/1056986/илюстрацы€
YA07:36:28/honda/1040/285984/схема радиозвонока
YA07:39:15/model/2037/1056986/илюстрацы€
YA07:40:00/model/2037/1056991/илюстрацы€
YA07:41:27/honda/578/176785/стенгазета новогодн€€
YA07:41:52/vw/3619/1365859/ritmix a 961
G07:43:16/vw/1771/652099/красивые дефки
G07:44:30/vw/2216/836142/хонда валькири€
YA07:48:46/photo/17/5400/‘ото в женской бане
G07:49:33/model/3043/1566233/армейские ремни
R07:49:42/vw/1890/700409/раскинулс€ график по модулю п€ть вдали интегралы
YA07:51:31/model/4811/2473160/с чего стрел€ть козу
G07:51:51/model/обсудим авто
M07:52:13/model/2067/1069731/парнуха
M07:54:20/vw/3039/1162973/пезанска€ башн€
R07:54:41/honda/264/84090/ƒырачки
G08:00:05/model/2229/1146213/" чужих людей соединЄнность и разобщЄнность близких душ!"
YA08:00:43/honda/1189/314561/keep4.
G08:04:27/model/2581/1323807/клерчить
YA08:07:13/vw/1208/426388/что думать, прыгать надо
YA08:10:11/model/2589/1328468/гороскоп на сегодн€ скарпион
G08:10:19/vw/1734/638611/жопищи
YA08:13:22/nissan/5/1458/зоопорно
G08:14:56/model/4063/2104107/поебаца
YA08:17:21/golflab/106/24081/плавают обороты холостого хода у VW
G08:18:33/model/2635/1354429/девушка шлепает девушку
G08:19:36/model/3564/1856851/дрочиво
G08:21:12/model/855/468081/спасыби
M08:21:56/model/1457/763984/все о праституток
G08:21:58/model/4973/2555517/феломена
YA08:22:12/model/1570/822168/ артинки ¬индизель
M08:24:28/model/1562/817775/телки в трусиках
YA08:26:42/golflab/87/20250/задний дворник golf
G08:26:47/vw/1491/539667/перьевик
G08:28:02/model/5553/2857582/карты айгоу
M08:28:03/model/2588/1327505/голые мущины
G08:31:05/model/5553/2857582/карты айгоу
G08:31:17/model/5553/2857582/карты айгоу
G08:31:40/model/3285/1698502/заработать ниху€ не дела€
G08:32:30/golflab/30/5369/детонаци€ на холостом
YA08:32:30/model/2461/1261720/тетки голые
M08:35:37/vw/3198/ан€ веревкина
G08:38:24/vw/1398/501786/простатоэктоми€
YA08:39:41/model/2149/1108309/похмелье от шампанского
G08:39:41/vw/1398/501786/простатоэктоми€
YA08:40:47/model/2833/1456915/проститутки с отзывами
G08:41:40/model/2114/1093258/телки вчулках
YA08:42:19/vw/3018/1154120/вынуждена была раздетьс€
M08:42:51/vw/247/натуристки
YA08:45:30/fishing/2/380/как точить ножи ледобура
YA08:45:31/renault/38/10357/парнуха
G08:46:03/vw/356/129721/Ѕолезнь  ретинизм
YA08:46:10/golflab/134/29095/габариты и дальний свет работают ближний нет
G08:47:23/model/2976/1532703/јрабска€ в€зь
YA08:48:18/honda/586/178954/шрифт saloon
YA08:48:22/model/4156/2148552/фото раздетой одноклассницы
G08:49:22/vw/3626/1368114/песьмо деду
YA08:51:51/model/2087/1079459/страпонщица
YA08:53:12/kurilka/108/47119/ботинки нариман
YA08:53:20/kurilka/108/47119/ботинки нариман
YA08:53:31/kurilka/108/47119/ботинки нариман
YA08:53:36/kurilka/108/47119/ботинки нариман
YA08:53:47/kurilka/108/47119/ботинки нариман
YA08:53:54/model/3607/1879194/¬арка винта
YA08:54:03/nissan/27/8728/сайт разборки на осташковском шоссе
G08:54:12/honda/1199/315986/работа в нэте
YA08:54:19/renault/38/10357/парнуха
AP08:55:01/model/4085/2114691/“ундра - народ
G08:56:04/model/3793/1970743/ух ты какие сиськи
YA08:56:05/vw/3728/1398123/оператор 8-901-
YA08:57:01/model/2465/1264058/фирамоны
R08:57:06/auspuff/3/треск в глушителе автомобилей TOYOTA
YA08:57:19/model/2913/1500320/фирамоны
G08:58:17/model/54/32560/про ѕорше
G08:58:42/vw/1938/720493/ѕришла весна, посылаю всех на
YA08:58:58/fishing/3/438/рыбалка в ¬олгограде
YA08:59:23/photo/5/1298/Nikon 50D
G08:59:55/vw/530/180981/сколько бит в одном мегабайте
YA09:00:05/golflab/41/8216/ промывочные масла ELF
YA09:00:59/vw/2821/1081125/бесструктурное скопление людей, лишенных €сно осознаваемой общности целей
G09:01:22/vw/3544/1341712/опера случилось страшное
YA09:02:48/vst/4/826/лыжный рынок сайкина
M09:03:37/kurilka/121/54049/7-й размер
YA09:05:23/model/3862/2004890/праститутки сочи
YA09:06:43/model/1553/813284/костюм инопланет€нина
G09:07:54/golf-stream/20/3292/какие стойки лучше
YA09:08:25/renault/22/6023/секс дл€ уш
G09:10:57/golflab/80/18548/спешка хороша только
YA09:12:12/vw/3253/1243868/јнастаси€ оношко
G09:12:54/vw/3763/1408574/пиздец.нет
G09:12:57/model/2668/1373328/бычий цепинь
YA09:14:40/vst/4/846/как сделать бугель
YA09:14:52/model/4220/2180094/зассыхи
G09:14:54/model/2668/1373328/бычий цепинь
YA09:14:56/honda/1136/304093/мен€ выебла собака
G09:15:41/model/1142/607123/действующий офицер
G09:16:05/model/4987/2562669/гидрапон
M09:16:09/model/4047/2096877/догстайл
G09:17:34/model/2668/1373328/бычий цепинь
YA09:17:38/honda/1421/356009/как узнать фамилию по адресу
G09:18:49/model/3055/1574101/интенсификаци€ труда
G09:19:22/vw/1153/405768/куплю гольф 1 кабрио
G09:19:35/model/2293/1177053/гнать пургу
G09:20:23/honda/1249/326573/мазь спасатель
YA09:20:26/model/805/441703/овощебаза.org
YA09:20:30/tushkan/10/1622/отвалилс€ молдинг на двери
G09:20:32/model/3789/1968974/отьебись
G09:20:39/model/4635/2383891/отьебись
YA09:21:21/model/4218/2179261анбеливебл
G09:21:53/model/3725/1937832/100.0 ћбит/с
YA09:22:06/koleso/5/325/зимн€€ шипованна€ резина матадор
G09:22:14/model/87/52218/насто€щность
YA09:22:15/model/3848/1998110/варианты ценников
G09:23:00/vw/1098/384921/перевод аррива
YA09:24:00/honda/431/134889/прета порте
YA09:24:28/vw/1370/489977/«ќќ—≈ —
YA09:24:32/model/4546/2334538/http://www.torents.ru
YA09:26:46/model/2236/1149397/рипкерл
YA09:26:46/honda/407/продам SHARP GF777
G09:28:46/model/1597/835401/шкары
YA09:29:23/vw/1348/480346/донка с коромыслом
YA09:30:02/model/5512/2834156/амексин
YA09:30:31/model/2996/1542006/амексин
M09:31:02/renault/43/11853/курс валюты кыргызского сома к рублю
YA09:33:04/vw/3486/1323549/ЅЋ85
YA09:33:14/honda/407/127160/SHARP GF777
YA09:33:52/honda/153/46394/русификатор mathcad 2000&скачать
G09:33:59/vw/1132/397231/ню+весна
G09:34:57/honda/732/215239/бингальский тигр
G09:35:45/model/2877/1481949/torture torrent
YA09:37:36/vw/3494/1326492/?all=nрасширение .xlsx
YA09:38:16/golf-stream/2/412/как выкрутить сломавшийс€ болт
YA09:38:51/model/2737/1407600/–Р –≥–і–µ –±–∞–±–∞ –У–∞–ї—П?
YA09:38:52/vw/3728/1398123/901 оператор
YA09:38:58/model/4646/2389313/тойота фриландер
R09:39:45/vw/1607/589398/экстропол€ци€
G09:40:10/vw/2867/1098769/€ полигамна
YA09:40:26/renault/3/510/объебосники
G09:40:27/honda/1446/360718"„ерный пес. ѕуть самура€"
YA09:40:29/kurilka/82/35294/царской рыбой на руси называли
YA09:40:43/model/1468/769991/месть за миньет
YA09:41:17/honda/650/194339/www.dom2.ru
YA09:41:25/model/2652/1363971/¬индизель
M09:41:39/model/5511/2833986/ псевдоэфедрина гидрохлорид
M09:41:49/model/1432/иратическии мультфильмы
M09:41:58/honda/159/48164/порножесть
YA09:43:08/vw/305/113653/тереза орловски
G09:44:10/vw/3873/1442755/ноки€5800
M09:44:16/model/821/449310/бальшые сиськи
G09:45:05/model/4660/2398415/член 25 см
G09:46:21/vw/1262/447308/errotika
M09:46:24/vw-club/8/523/пробить авто по vin германи€ фольксваген
G09:46:34/vw/1259/445816/чего боишьс€, то и происходит
G09:46:53/model/3336/1726673/Carrera джинсы
G09:46:59/model/2633/1353196/»нститут им.Ѕлохина
G09:47:44/vw/1283/455188/радиоперехват
G09:47:51/model/3725/1937832/100.0 ћбит/с
G09:48:16/vw/2700/1034283/междуножье
YA09:48:36/boards/16v
G09:48:41/model/5554/2858088/паста-машина
G09:49:54/model/2543/1303182/смещение этносов
G09:49:55/model/5554/2858088/паста-машина
YA09:50:48/model/2463/1262715/а ваша гала то балована
G09:50:55/vw/1684/619964/ упить ѕапиросную бумагу
Y09:51:27/photo/3/картинки озиме
G09:52:18/vw/3700/1390384/скачать Ћукъ€ненко - „ерновик
G09:52:49/vw/1495/541138/¬ екселе с плюсиком
G09:53:03/vw/1684/619964/ упить ѕапиросную бумагу большого размера
YA09:53:12/vw/2527/964655/как отмыть чугунную сковородку
M09:54:24/honda/43/12993/хонда римонт
M09:54:32/model/5155/2644549/ расивые гламурные казашки
YA09:54:50/kurilka/74/31729/бабы в чулках
YA09:54:53/vw/1278/453278/жестка€ немецка€ парнуха
YA09:56:59/vw/426/152429/мониторы лсд хитачи
YA09:57:03/model/2979/1534646/тексты шуточных объ€влений
G09:58:23/vw/3547/1342495/вдуй
G09:58:47/kurilka/153/69315/вдуй
M09:58:52/model/4200/2169716/ноки€ 8800е
G09:59:55/vw/2795/1071952/тринитроацетат
M09:59:56/model/3862/2004890/праститутки сочи
M10:00:37/vw-club/12/879/пробить авто по vin фольксваген
G10:02:12/model/3595/1872882/мечена€ власть
YA10:02:48/model/4603/2365248ipod tach
YA10:03:11/model/3458/журнал"клаксон"second-test
G10:03:58/model/411/236992/€ поэт на им€ цветик от мен€ вам всем приветик
YA10:04:39/vw-club/19/1543/wv golf
AB10:04:46/vw/373/135938/новопассит
YA10:05:07/vw-club/44/3682/ оды красок Ford ‘ќ–ƒ
YA10:06:18/honda/155/47032/инцэст
YA10:06:26/kurilka/133/60053/antijob
YA10:07:09/golflab/40/8074/ремкомплект карбюратора 2E
YA10:07:11/model/2635/имм коза ностра
YA10:07:37/vw/1817/669154/фотки голых бабушек
G10:08:17/honda/404/‘ото страпон€щих
M10:08:21/vw/1370/489977/зоосекс
YA10:10:18/vw/3182/1218946ќндрюшќ
G10:11:58/vw/38/15403/офис билайн сокольники
G10:12:33/model/5052/2595060/как размагничивать часы
G10:12:40/model/3417/1773861/vdui
G10:14:09/model/5338/2741190/сасульки
YA10:14:17/model/381/220178/«азель
G10:14:35/model/5554/2858088/паста-машина
YA10:15:26/golflab/96/22098/golf 2 провисли двери
G10:16:34/model/4694/2415896/менты пидоры
YA10:16:39/model/4636/2383988/‘ильм"»рони€ сутьбы"
YA10:17:08/honda/1406/354009/офицеры.ру
YA10:17:39/kurilka/90/39008/как проставл€етесь на работе
YA10:17:47/boards/16v
YA10:17:49/photo/19/5814/фонарь дл€ тЄмной комнаты
YA10:18:02/photo/19/5814/фонарь дл€ тЄмной комнаты
G10:18:54/model/1133/602697/фитишисты
YA10:19:17/kurilka/79/33952/терафлю вредно
YA10:19:24/kurilka/79/33952/терафлю вредно
YA10:19:40/model/2087/1079459/страпонщицы
M10:19:52/model/3819/1984069/женскии письки
YA10:19:59/model/3813/1980903/дериватив это
PO10:20:22/golflab/131/28550/сколько стоит замена шруса на ауди
YA10:20:24/model/2825/‘ото пизденак
YA10:20:48/model/3589/1869556/аэрочино
YA10:21:39/honda/650/194339/www.dom2.ru
YA10:21:42/vw/3459/1314537/Ёлектронабор дл€ маникюра
YA10:22:22/vw/3459/1314537/Ёлектронабор дл€ маникюра
YA10:22:25/honda/249/79298/сисечки
YA10:22:42/vw-club/38/3184/двигатель AVH
YA10:23:31/golflab/115/25699/кап ремонта двигател€ признаки
G10:23:32/vw/2925/1120130/если заложено ухо
YA10:23:39/vw/3062/1171582/бонжур перевод
YA10:23:41/model/1049/563030/отсыпь а
YA10:23:45/model/4235/2187638/?all=nбабло за трафик
YA10:23:48/vw/2314/877847/дофига нет
G10:24:03/model/4392/2261745/лжелюбовь
M10:25:33/model/3376/1750964/гарбушка
G10:25:45/model/2148/1108027/как барс пустынный зол и дик
YA10:25:55/vwagainst/48/14786/расписание автобусов москва-краснодар
AP10:27:26/kurilka/241/110325/ ерби
YA10:28:40/vw-club/32/2737/чипованный ключ,дубликат
YA10:28:58/kurilka/190/86706/голышом на пл€же
G10:29:25/model/444/253434/нихт данке
G10:30:31/model/5747/2958296/фотки говна
YA10:31:07/golflab/40/8074/прокладка дл€ карбюратора гольф 2 Pierburg 2E
YA10:31:14/kurilka/205/94662/твой дом на каширке
YA10:31:27/auspuff/14/1657/фланцы под гофру
YA10:31:56/model/1550/811605/что такое релевантный
M10:33:13/honda/407/127165/шарп 939
YA10:33:38/vw/2101/787955/ћосква-большой город
YA10:33:40/honda/592/180463/105-€ стать€ –‘
G10:33:52/vw/2617/1003482/костровище
G10:34:36/honda/976/270626/шубись, шуба
YA10:34:54/vw/3728/1398123/901 оператор
YA10:35:34/honda/26/7501/конь ебет женщину раком
YA10:35:35/model/1410/741255/сауна и бл€ди
G10:35:48/vw/707/241355/внедорожник фольсваген
YA10:36:16/renault/23/6200/сказка  олобок на новый лад
YA10:36:45/honda/406/126948/что такое “умбо-ёмбо
G10:37:19/vw/1703/627504/закрытый каток
YA10:38:05/vw/612/206874/унитазы без плюха
G10:39:11/model/2539/1301372/что такое «ћ
N10:39:12/model/3672/1911708/аднакласники
YA10:39:28/vw/3863/1439314/йоллопуки
YA10:40:43/model/690/383714/расшифровка зип
G10:41:09/auspuff/7/828/как продиагностировать моновпрыск
YA10:41:21/honda/1000/276970/honda ∆улебино
G10:41:40/model/1871/976571/≈сенц≥але
G10:41:54/model/1912/998829/айкью за 140
G10:41:56/model/2535/1298892/злоебучки
YA10:42:07/model/4246/2192502/монклер купить
G10:42:24/honda/1434/358307/джыпы.полноприводные
YA10:43:11/kurilka/90/38960/обвисшие сиськи
YA10:43:20/kurilka/66/28162/Ѕоевой листок в воинской части
N10:43:47/model/3672/1911708/аднакласники.ру
G10:44:23/vw/2878/1102506/¬альполичелло
YA10:44:33/vwagainst/36/11319/стих про ралли
YA10:45:51/honda/1127/302236/плетение фракталов
G10:46:29/vw/3629/1369228/каширский двор на €рославке
YA10:46:58/model/775/425671/семисвешник
G10:47:23/model/4434/2281355/рисунок зайца
G10:47:32/photo/24/7268/http://forum.ru-board.com/
G10:48:05/boards/16v выхлоп
YA10:48:17/model/3875/2011524/корпус дл€ мобилки
R10:48:24/auspuff/3/435/Toyota sprinter
YA10:48:33/model/2906/1497176/образец поздравлений с новым годом от фирм
M10:48:58/model/3634/1892597/прочитать смс с чужого мобильника
G10:49:03/model/5196/2666175/элетероукок
YA10:49:18/model/1091/582516/пелотка крупным планом
G10:49:30/model/5196/2666178/элетероукок
G10:49:31/model/5196/2666178/элетероукок
G10:50:49/model/3714/1932908/4 сиськи в прозрачных плать€х
G10:50:53/model/2861/1472982/самогон
G10:51:46/vw/1684/619979/кал€ьн
YA10:51:49/vw-club/3/141/акпп vw passat b3
YA10:52:01/model/2067/1069731/ѕарнуха
YA10:52:21/model/2627/1349618/—тарших надо уважать и слушатьс€
G10:52:48/vw/1434/516849/прикольные погон€ла
YA10:53:05/model/2932/1510326/платформа с1
R10:53:15/vw/146/58120/лен супер
YA10:53:33/model/2988/1538745/парнуха видело
G10:53:56/vw/1434/516849/прикольные погон€ла
YA10:54:17/model/690/383714/зип расшифровка
YA10:54:53/vw/3494/1326492/расширение xlsx
YA10:55:10/model/3100/1597214/как лечить гимарой
G10:55:41/model/4344/2237952/дон периньон
YA10:56:27/nissan/19/6231/сиськой в жопу
YA10:57:34/model/3844/1996141/интеллект глухих
G10:58:04/model/5867/3022586/чучмек
YA10:58:21/model/4664/2400290/автомобиль тоета хайлендер
G10:59:08/model/5477/2815292/как наибать всех
YA10:59:36/renault/51/13949/зоофели€
G11:00:25/model/1438/754317/трихапол
G11:00:43/model/104/63640/лева€ активаци€
YA11:01:43/model/1417/744358/свитер с оленем купить
M11:02:23/model/904/безалкогольные кактейли
M11:02:35/vw/1370/489977/зоосекс
YA11:03:02/kurilka/46/18636/свитер с оленем купить
YA11:03:03/model/23/13580/ебушки
YA11:03:05/kurilka/82/35349/посоветуйте персональный алкометр
YA11:03:18/kurilka/82/35351/посоветуйте персональный алкометр
G11:04:05/kurilka/265/121650/блекбер≥ сторм
G11:04:32/honda/777/223508/керхер на ленинском
YA11:06:42/nissan/17/5404/надувание л€гушек
YA11:07:01/honda/367/115780/страпонить
YA11:07:43/golflab/114/25524/карбюратор WEBER KIT цена
YA11:08:15/vw/3231/1236163/Company Media Lotus
YA11:08:25/renault/counter/+7 (901) 316-8702
YA11:09:19/honda/367/115780/страпонить
YA11:09:56/honda/1081/293775/пиздища.ру
YA11:10:01/vw/3306/1262084/ƒќћјЎЌ≈≈ ѕќ–Ќќ —јѕ„ј 
G11:10:08/vw/3547/1342495/вдуй
YA11:10:15/auspuff/25/2999/катализатор на фокус
G11:11:05/kurilka/153/69315/вдуй
G11:12:09/vw/47/19246/много ба€нов
G11:12:29/nissan/15/4905/ебун
YA11:12:48/vw/3366/1282826/мини саб
G11:12:59/model/2999/1543996/ура снек
M11:13:23/model/1179/тринажор беговые лыжи
YA11:13:25/model/2662/1370055/сельдиреева€ диета
G11:13:38/model/391/225498/€ скучный
G11:15:03/photo/24/7268/"ru-board"
YA11:15:16/vw/3018/1153973/попы в стрингах
YA11:15:16/vw/3058/1170352/кастрол тда
YA11:15:45/model/2067/1069455/Ѕугага Dos
YA11:15:58/kurilka/182/83136/ударение пульты
YA11:16:09/renault/38/10399/девки на снегу
G11:16:26/model/158/95091/эмпэбло унидо
G11:17:06/vw/2993/1144154/изложеного
YA11:17:09/model/4039/2092538/маленькие сасут
G11:17:56/photo/24/7268/forum.ru-board.com
G11:18:09/vw/2672/1024019/просроченное шампанское
G11:18:20/model/5740/2955632/пергидрольные
YA11:18:31/honda/722/212925/проживание в “ерсколе в частном секторе
YA11:18:55/model/3124/1610920/какой фен купить
YA11:19:10/model/3124/1610920/какой фен купить
G11:19:18/vw/2672/1024019/просроченное шампанское
YA11:19:23/model/3124/1610920/какой фен купить
YA11:19:42/model/2671/1374670no sukkaz
YA11:20:00/model/2671/1374670no sukkaz
YA11:20:18/nissan/4/989/интересные фото порнухи
G11:21:13/model/1084/579817/за почитать
YA11:21:35/vw/3438/1308184/спирт с огурцом
YA11:21:37/model/2462/1262166/секстуры в
YA11:22:39/vw/3675/1383272/sony ericsson z770 Exquisite Golden
YA11:23:10/honda/592/180463/105-€ стать€ ук рф
G11:23:46/model/1886/985423/смайлинк
YA11:23:52/model/2066/1069149/пихалки.ру
R11:24:13/vw/2091/783763/¬се про газель
YA11:25:37/photo/22/6535/песн€ и унос€т мен€
G11:26:31/vw/855/297136/бланк за€влени€ в овир
YA11:26:35/vwagainst/16/4315/не помен€ли ценник
G11:26:44/honda/1028/283180/бабла желаю
YA11:27:07/vw/3007/1149948/непосто€нство женщин и мужчин
YA11:27:08/kurilka/155/70062/где живут белки
PO11:27:48/model/4312/2222836/причоска
YA11:27:54/model/1949/1017541/брабус ху€бус
YA11:28:18/boards/16v
G11:28:39/vw/194/76045/магазин ничего подобного
G11:29:15/honda/395/123453/swift-это
YA11:29:17/honda/232/74147/как замазать прыщи в фотошопе
YA11:29:52/honda/650/194339/dom2.ru
YA11:30:03/honda/650/194339/dom2.ru
YA11:30:06/kurilka/19/5724/что такое гомогенизированный
YA11:30:23/auspuff/19/2338/глушитель 21093
YA11:30:34/model/1106/590120/никрафилы
G11:32:04/model/2448/1254596/кат€ прошмандовка
AB11:32:43/model/3124/1610930/фен moser
G11:33:23/model/5321/2731487/Ёнштейн и ¬еды
G11:34:47/vw/1162/408991/√аймарит
YA11:35:07/kurilka/74/31729/бабы в чулках
G11:35:44/vw/1162/408991/√аймарит
G11:36:14/model/5586/2875255/–ози о грейдис на «наменке
G11:36:28/model/5586/2875255/–ози о грейдис на «наменке
G11:36:33/model/2420/1240851/папюс ћаги€ и гипноз
R11:36:38/model/876/478332/паследний гирой
YA11:37:10/model/1492/781432/жосткое порево.
G11:37:17/model/2420/1240851/папюс ћаги€ и гипноз
YA11:37:24/vw/3482/1321933/«еркальный элемент гольф 4
G11:38:37/honda/200/63843/бритые пелотки
YA11:38:43/vwagainst/31/9488/разр€ды в автоспорте
YA11:38:46/model/2087/1079462/уебанище
YA11:38:49/golflab/69/15262/датчик абс Meyle
YA11:38:49/golfclub/52/11390/как определить неисправность шруса
YA11:38:58/vw/1602/смотреть голых баб
YA11:39:20/model/1640/855569/термобелье бабушкинска€
YA11:39:41/model/2068/1069921/малалетки
G11:39:48/model/4611/2369798/расчет среднемес€чного остатка
M11:40:49/vw/2706/ЎЁ 2706 021
YA11:40:59/golflab/135/29233/golf2 замена √–ћ
YA11:41:16/photo/21/6336/фото страшных девок
M11:41:31/golflab/75/17040/карбюратор делорта
YA11:41:34/honda/1192/315071/залупой красной солнце встало
G11:42:16/honda/1102/297458/ленинградка люк
YA11:42:27/kurilka/62/25965/зачем дрочить
G11:42:55/vw/237/91185/towel.blinkenlights.nl
M11:43:22/model/1569/821582/необычные падароки
G11:43:47/vw/1974/735805/CS-4094
YA11:44:03/nissan/6/1491/педофил
G11:44:42/vw/2161/812154/люди ищут половинки
YA11:44:52/vw/2593/993015/ƒевочки в бане.
YA11:44:53/model/3100/1596860/купить тахинна€ паста
G11:45:09/model/4421/2274814/давай перепихнемс€
YA11:45:20/model/5512/2834156/амексин
G11:45:52/model/2862/1473985/как выплавит кастет
YA11:46:14/golflab/2/357/ ак правильно пользоватьс€ сцеплением
G11:46:37/vw/17/7214/"как бы € хотел оказатьс€ между ними"
YA11:46:41/honda/1073/292383/колотушка тук тук тук спит животное паук
YA11:47:20/vw/1370/489977/«оосекс
YA11:47:20/model/3805/1976727/—амые некрасивые попы
G11:47:27/model/191/112439/бахилы химзащита
YA11:48:29/golflab/110/24766/адоптаци€ дросел€
YA11:49:29/honda/153/46394/скачать игру Midnight club2
G11:49:35/golf-stream/35/5333/KE-Motronik
YA11:50:00/model/1564/818884/дресс код в венской опере
M11:50:34/model/1502/786090/клафилин
YA11:50:42/auspuff/28/3339/Lancer катализатор
M11:50:44/honda/46/13747/?all=nклафилин
G11:51:31/vw/1228/434253/шутка —»Ќ»… Ё –јЌ
YA11:51:40/vw/1622/595045/что такое ливневый снег
G11:51:40/model/5699/2933749/јутлук цвета календарей
M11:51:53/model/4291/2213091/генг бенг
YA11:52:14/vw/2920/1118005/как подрачить
YA11:52:19/model/3634/1892556/айфон
G11:52:25/vw/998/351015/апроксимировать
G11:53:04/model/680/377401/найти работу в молдавии
YA11:53:08/honda/177/55514/вибраторы во все щели
YA11:53:29/model/2087/1079459/страпонщицы
YA11:54:22/honda/722/212974/наркотики в гатчине
YA11:54:42/golflab/40/8074/ремкомплект дл€ карбюратора Pierburg 2E √ольф 2
YA11:54:44/model/1197/631235/ликер ксю ксю
YA11:54:44/auspuff/10/1220/www.vw golf3
YA11:55:07/model/2405/1233094/как трахаца
G11:55:26/vw/237/90987/как мен€ выпороли
YA11:55:43/model/2098/1085625/сони сайбер шот
YA11:56:06/model/879/479512/‘ото телки. ћалолетки
G11:56:14/vw/1477/534382/расковой 1 медкомисси€
G11:56:39/model/4252/2195599/прижимистый
G11:56:40/vw/1477/534382/расковой 1 медкомисси€
G11:57:09/vw/1477/534382/расковой 1 медкомисси€
G11:57:09/model/234/138198/ставки гарантии
G11:57:12/model/515/293059/who is fucking Alice
YA11:58:20/kurilka/111/48689/’енкальна€
M11:59:11/model/1803/940956/праздничные паздравлени€
G12:00:18/golf-stream/35/5333/KE-Motronik
YA12:00:43/golflab/75/17039/јэрозоль цинковый
G12:01:02/vw/2048/766715/ту204
G12:01:14/model/3956/2052779/“Ћ  100 или “Ћ  120
YA12:01:17/ps/4/675/w27c512-45 чем прошить
G12:01:30/model/4886/2511350/военторг америка
G12:02:19/model/467/265477/милен фармер мп3
M12:02:48/fishing/2/260/донные снасти на карпа
G12:03:21/honda/1281/332413/флипаут
YA12:03:32/honda/143/43601/как вытащить прикуриватель на хонде
YA12:03:38/kurilka/84/36315/игрушка руль компьютерный
G12:03:44/vw/2884/1104478/забудь о том, кто ты такой
YA12:04:02/model/2087/1079459/страпонщица
YA12:05:04/vw/574/193993/ставить машину на учет в марьино
YA12:05:06/model/2833/1456602/ромбаба
YA12:05:21/honda/1101/297328/12 ригион
G12:05:52/vw/785/272395/как шиповать резину
M12:06:01/vw/3031/1160126/орабские эмираты
YA12:06:38/golf-stream/14/2263/?all=nразборка в мытищах
YA12:06:47/vw/3167/1213752/как посчитать количество досок в кубе
YA12:07:21/golf-stream/34/5174/запчасти на гольф 3
YA12:07:27/model/4116/2129375/хакапилита
YA12:07:37/kurilka/204/94597/разденьс€ выйди на улицу голой стриптиз м€сники
G12:07:43/model/1734/904001/пропоузал
YA12:08:48/vw/3621/1366671/что такое бутират
G12:08:57/model/5767/2969692/цикладол
YA12:09:12/model/4279/2207584как сделать радио на айфон
G12:09:52/model/5767/2969692/цикладол
YA12:10:46/vw/2882/1104008/кулинари€ от ресторана прага
YA12:10:50/model/2508/1286553/секс с псом в москве
YA12:11:10/16v/9/972/golf 2 kr битый
YA12:11:22/model/1886/985423/смайлинк
G12:11:32/honda/381/119683/центровочные кольца
G12:11:54/vw/1878/695018/ап!и тигры у ног твоих..
YA12:11:55/model/2347/1203753/порно модели в бане
YA12:13:20/honda/159/48164/порножесть
G12:14:38/model/2665/1371776/ап!и тигры у ног твоих..
YA12:15:15/vw-club/2/236/техосмотр ёјќ
M12:16:05/nissan/5/1458/зоопорно
YA12:16:06/honda/48/14638/ ристалическа€ решотка
YA12:16:08/model/552/312132/ускорение 4g
R12:16:26/honda/776/223202/http://www.rambler.ru/srch?words=
M12:16:44/admin/3/391/паздравление на новы год
YA12:16:48/honda/48/14638/ ристалическа€ решотка
G12:17:26/vw/1869/690478/технически сложное устройство
R12:17:52/golflab/113/«амена опор двигател€ AUDI 100 AAR
YA12:17:54/vw/2821/1081098/“”Ѕќ«»ƒ
G12:18:01/model/395/227834/viselki
G12:18:12/vw/297/111068/обновление на макафи
M12:19:00/16v/5/399/обороты хх 1200 1300
YA12:19:10/model/1053/564962/lovemail.ru
YA12:19:25/vw/1370/489977/зоосекс
YA12:19:30/honda/225/72149/ƒ Ѕ‘
YA12:20:37/model/5664/наоми кембел и доронин
YA12:21:54/kurilka/74/31729/бабы в чулках
YA12:22:56/golf-stream/14/2348/ј ѕѕ 01ћ
G12:23:30/honda/117/36472/‘умл€
YA12:23:42/kurilka/51/хокку юмор нефритовый стержень
G12:24:30/model/522/297309/прасти прасти
YA12:24:48/vw/1370/489977/зоосекс
YA12:25:11/vw/305/113653/тереза орловски
YA12:25:21/golflab/34/6455/crjkmrj cnjbn pfvtyf dyenhtyytuj ihec
YA12:25:24/boards/16v
G12:25:34/vw/3748/1403220/куплю опарышей
G12:25:35/vw/605/арбайтен махт фар
G12:26:11/vw/870/304468/ѕесн€ "’азбулат молодой"
YA12:26:15/model/4622/2376061/пожароопасность сажи
YA12:26:25/model/4622/2376061/пожароопасность сажи
YA12:26:33/auspuff/25/3020/пламегасители Chevrolet Lacetti
G12:27:02/photo/1/137/как в фотошопе сделать негатив
YA12:27:03/golfclub/70/15618/подвеска на гольф 4
YA12:27:14/model/4153/2147260/какой мотор в руссобалт
G12:28:09/vw/361/131290/www.alpine.ru
YA12:28:18/kurilka/122/54513/тройчатка эвалар
YA12:28:31/model/1785/фистинк глубокий
YA12:28:49/golflab/68/15126/лампочка мигает на больших оборотах
M12:28:56/model/3679/1915673/ебуца
YA12:29:19/golfclub/70/15618/подвеска на гольф 4
G12:29:47/model/768/421459/знак- ваще пох
G12:29:48/model/230/135583/Ѕоц Ќаталь€
YA12:30:03/model/1385/727606/чеб замутить?
G12:30:53/model/648/360039/черви в человеке
M12:32:08/model/2442/1252154/—Д–Њ—В–Њ–∞–њ–њ–∞—А–∞—В –Ї–µ–љ–∞–љ
YA12:32:31/model/2538/1300619/костюм ренджер
M12:33:28/nissan/5/1458/зоопорно
YA12:33:34/vw/1104/387337/или шах сдохнет ишак
G12:33:36/vw/481/168228/спарко купить
YA12:33:41/vw/1136/398966/пол масон вино
YA12:34:03/model/2428/1244769/кевро
G12:34:10/vw/398/144059/"—лово пока"
YA12:34:20/vw/2504/954956/куплю бмп
YA12:34:21/tushkan/11/1711/акпп jetta
YA12:34:28/model/1417/744358/свитер с олен€ми купить
YA12:34:39/nissan/27/8728/–ј«Ѕќ– ј , ќ—“јЎ ќ¬— ќ≈ Ўќ——≈
G12:34:43/vw/825/285768/javascript c#
M12:34:51/model/1716/894738/купить л-карнитин
G12:35:40/model/1714/893757/милодрамы
G12:36:36/model/2931/1509832/бедоны
M12:36:48/model/2442/1252154/—Д–Њ—В–Њ–∞–њ–њ–∞—А–∞—В –Ї–µ–љ–∞–љ
YA12:37:53/vw/2488/948054/запах изорта
YA12:38:01/model/5624/порно в кавкази
G12:38:20/vw/2665/1021880/худ лок
YA12:39:38/honda/43/12935/бабы в чулках
YA12:39:46/model/3862/2004890/ѕраститутки в сочи
M12:40:43/model/4869/2502026/шевроле трейлблезер
G12:40:53/model/2147/1107597/—ильные стихи
G12:41:16/model/4426/2277479/больно писать
G12:41:54/honda/367/115942/насто€щий оливье
YA12:42:04/model/1241/651641/вот засунула сибе
G12:42:31/vw/2792/1070724/трахнуть секретаршу
M12:43:23/model/3873/2010537/ ареас
YA12:43:36/model/3672/1911560/прастетутки
R12:43:50/golflab/120/26656/?all=nрегулировка кастра
M12:44:17/model/3873/2010537/ ареас
M12:44:27/model/3873/2010537/ ареас
G12:44:37/vw/2060/771283/обтекай
G12:44:40/kurilka/131/59194/индейцы амазонки
G12:44:55/model/5220/2679159/кубиков.нет
G12:44:57/vw/2597/994723/ ей ћарро
YA12:45:01/vw-club/46/3795/реквизиты гибдд
G12:45:08/vw/222/85758/Ђпо Упь€ной дорогеФї
R12:45:29/vw/2102/788208/цветы дл€ невесты
G12:46:27/model/1884/983875/ »Ќ   ќЌ 
N12:46:34/model/3119/1608042/при€тный стешок
G12:46:44/vw/142/56612/аккумул€торы дл€ упса
YA12:48:35/vw-club/14/1065/автосервис в митино
G12:48:37/model/3625/1888329/заумные высказывани€
M12:48:43/model/2539/1301277/аригами из бумаги
R12:49:17/honda/676/201427/приготовление гус€
YA12:49:28/vw/1622/595045/–ї–Є–≤–љ–µ–≤—Л–є —Б–љ–µ–≥. –І—В–Њ —Н—В–Њ —В–∞–Ї–Њ–µ?
G12:49:41/megasquirt/3/818/мегасквирт
YA12:50:04/honda/1047/287309/сколько самолетов в мире
YA12:50:19/model/2369/1215625/реквием цветаева
G12:50:28/model/5209/2673044/шалуны и шалуньи
G12:50:31/vw/2694/1032336/вуерист
G12:50:31/model/5836/3006732persuaders сериал
YA12:50:46/ps/3/489/ акпп 9а
G12:51:02/model/5562/2862932/дай мильон, дай мильон, дай мильон...
YA12:51:13/model/3851/1999661/купить водку марус€
YA12:51:20/model/4204/2171786/мазда 3 мпс
YA12:51:50/vw/2533/966847/ххх
YA12:52:04/vw/3636/1371334/мы очередники
YA12:52:40/vw/2533/966847/ххх
G12:53:00/vw-club/39/3232/вискомуфта
YA12:53:39/golf-stream/9/1516/?all=nтахометр √ольф 2
YA12:53:58/nissan/16/5172/ пилотка хороша
G12:54:23/model/1168/618926/√апром
YA12:54:32/boards/16v
G12:55:10/vw/2615/1002261/вуерист
G12:55:39/model/2942/1516123/просрали полимеры
YA12:57:14/vw-club/38/3185/RP 70 глохнет
YA12:57:30/vwagainst/52/15979/смс паше
YA12:59:00/model/1324/695378/–азборка гелика
YA12:59:29/ps/5/814/структурна€ схема ЁЅ”
M12:59:48/vw/2547/973612/зоофилие
G13:00:23/model/5685/2926539/—вотчи
YA13:00:53/golflab/36/ј ѕѕ дл€ golf3
YA13:01:13/honda/249/79298/с»—≈„ »
G13:01:47/model/62/37555/—вотчи
YA13:02:52/golflab/104/23640/как зимой пон€ть что бензин плохой
YA13:03:54/model/4546/2334538/http://torents.ru/
YA13:04:07/model/4505/2314333/джелбрейк
G13:04:48/model/1107/590637/oztrovok.ru
YA13:05:02/vw-club/37/3121/система охлаждени€ фольксваген т2
YA13:06:11/model/1019/порно в кавкази
G13:06:24/golflab/82/18834/passat b3 холодный пуск
YA13:06:39/model/2067/1069731/парнуха
YA13:06:51/model/1567/ацка€ скатина
M13:06:52/vw/602/202860/модели с двум€ симками
G13:06:57/model/5488/2820578/Aleta
YA13:07:41/model/4441/2284357/штрафсто€нка в печатниках
YA13:08:18/kurilka/174/79739/ ак делать кунилингус
YA13:08:18/model/3376/1751213/штрейхбрейкер
YA13:09:21/nissan/12/3596/хентай картинки дл€ педофилов
G13:09:29/vw/2770/1061610/Ѕалин ѕревед
YA13:09:38/golf-stream/27/4121/система охлождени€ на автомобили гольф-3
R13:10:51/16v/7/703/http://www.rambler.ru/srch?words=
M13:10:58/nissan/5/1458/зоопорно
YA13:11:04/honda/153/46394/wap.myz-tv.ru
G13:11:14/model/5570/2867499/незашоренный
G13:11:17/vw/634/214784/тюнинг 112
G13:11:21/model/2004/1042364/гамасек.нет
YA13:11:34/model/552/312230/усилитель+радио
G13:11:57/vw/40/16079/—Ѕ диапазон
G13:12:35/vw/40/16079/—Ѕ диапазон
G13:12:47/vw/40/16079/—Ѕ диапазон
G13:13:22/vw/40/16079/—Ѕ диапазон
M13:13:26/model/2950/1519644/новогодние кастюмы
YA13:13:49/model/4505/2314333/джелбрейк
G13:14:27/ps/5/815/Digifant 2
G13:14:46/model/4675/2406199/бил€д
G13:15:11/model/3452/1796388/бурденко как проехать
YA13:15:50/kurilka/174/79727/кто говорил кадры решают все!
YA13:16:34/renault/23/6200/ ќЋќЅќ  Ќј Ќќ¬џ… Ћјƒ
YA13:16:55/vw-club/15/1236/vw пойнтер клуб
YA13:17:29/model/4667/2402532/красивые тЄлки с большими сиськами
G13:18:15/admin/6/979/хочу ник
G13:18:41/auspuff/30/3503/¬олга сн€та
YA13:19:17/model/3633/1892124/переодену в женское белье
G13:19:22/model/5452/2802699/случайно па
R13:19:52/model/427/244462/?all=nпограничный пост эстонии
M13:20:11/model/1294/679578/мерска€ тварь
G13:21:13/model/3980/2065212/вуаеристы
G13:21:17/vw/3020/1154910/еееееееее
G13:21:24/model/2624/1347774/затер€ные в космосе
G13:21:31/vw/3020/1154910/еееееееее
YA13:21:46/renault/13/3675/детские стихи-переделки
YA13:21:49/model/2312/1186031/бл€дска€ дорожка
G13:22:05/model/3402/1765455/рисованные олени
G13:22:07/vw/3020/1154910/еееееееее
YA13:22:11/model/2312/1186031/бл€дска€ дорожка
YA13:23:35/model/5512/2834156/амексин
G13:24:07/model/2429/1245247/cvv код
YA13:24:19/vst/4/868/как добратьс€ из анси в тинь
G13:25:10/model/5352/2748168/калева вита
G13:25:22/model/3664/1907935/арм€нские фонди
G13:25:49/model/4959/2548220/no brain no pain
YA13:25:52/model/690/383714/как расшифровываетс€ «»ѕ
YA13:26:17/model/3361/1741824–ецеп чебуречного теста
YA13:26:58/honda/1213/318217/дрочка на фотки
G13:27:05/vw/3614/1364250/карта москвы с разв€зками
G13:27:29/model/5207/2671569/сантехника-инструмент
YA13:27:57/vw/414/149289/√ќлые аборигенки
YA13:27:58/honda/1411/354711/оправдывани€ перед девышками
G13:28:43/model/3748/1948568/керасиры -
G13:28:45/vw/3256/1244773/ќќ»√
YA13:28:45/vw-club/20/1622/проблема с карбюратором Golf 2
G13:29:04/vw/3634/1370889/933-99-39
YA13:29:08/vw-club/15/1192/инструкци€ по эксплуатации автомагнитолы Stream
YA13:29:41/vw/3728/1398123/какой оператор 901
G13:30:00/model/4208/2174308/ƒ≈“— јя  ќћЌј“ј ћ»Ћ»÷»»
YA13:30:07/model/2461/1261720/тетки голые
G13:30:10/vw/2744/1051110/5тдф
G13:30:12/model/5801/2988092/айфон ммс
YA13:30:13/model/690/383714/как расшифровываетс€ «»ѕ
R13:30:13/16v/6/546/мой icq
YA13:30:18/kurilka/133/60254/как выращивать рукколу
G13:31:02/vw/681/231691/как пойти работать гаи
G13:31:42/vw/287/107641/"мой жизненный опыт"
YA13:31:46/auspuff/13/1572/хундай тибурон 2001
YA13:32:50/golfclub/45/9160/¬опросы по  Ўћ
G13:33:18/model/1572/823280/джони вокер
YA13:33:25/model/45/27362/симпл плеже
G13:34:20/model/3964/2057013/цена сх7
G13:34:34/model/4640/2386744/"мой жизненный опыт"
YA13:34:40/renault/14/3958/ти джей фрайдис на новослободской
G13:34:49/model/4677/2407348/прапорции
YA13:34:57/model/4102/геи €бл€ в жопу картинки
G13:35:01/vw/3634/1370889/ 8-905-933-99-39
R13:35:21/golflab/24/3965/ ак работает л€мда зонд
YA13:35:26/model/1883/983451/порна
G13:35:33/model/1572/823280/джони вокер
G13:35:45/honda/221/71159/крушовицо
YA13:35:54/vw/2351/892845/реквизиты на оплату транспортного налога
YA13:36:09/model/4460/2293045excel вместо букв цифры
YA13:36:26/model/5512/2834156/fvtrcby
YA13:36:26/model/4268/2202753писда тебе
YA13:37:41/vw/3058/1170077/не есть после 6
YA13:37:48/model/1552/812632/Ћигерос
YA13:37:53/vw-club/14/1068/автолечебница
YA13:38:14/model/4240/2190418/дарь€ строкоус
YA13:38:21/model/2950/1519669/кастюм ƒартань€на
G13:38:47/model/1453/761860/ћ–Ёќ √»Ѕƒƒ ёјќ
YA13:38:57/golflab/127/27921/√ольф 3 ј≈ј давление масла
YA13:39:00/vst/4/868/как добратьс€ из анси в тинь
R13:39:08/honda/421/131788/стишки со смыслом
G13:39:28/model/2624/1347691/мои старые костыли
YA13:39:33/kurilka/170/77466/суриката купить
YA13:39:39/vw/3051/1167810/ћ“— пидарасы
G13:39:48/model/1650/860201/пионер должен быть вежливым
YA13:40:23/renault/12/3305/*.ods чем открыть
YA13:40:51/golf-stream/23/3652/поводки √ольф
G13:42:01/model/2816/1447343/тесто дл€ пирашков
YA13:42:04/ps/1/41/ALDL
M13:42:05/vw/1285/455878/цэлки
YA13:42:07/photo/8/2203/снимки из морга
YA13:42:08/honda/518/160901/женщины ананизм
YA13:42:11/model/3672/1911708/аднакласники.ru
G13:43:17/model/4619/2374192/«јќ ”‘——ѕ по ћоскве
YA13:43:29/koleso/4/293/увлажнитель очиститель воздуха
M13:43:43/model/4317/2225306/скачать игры дл€ айфона
YA13:44:08/golflab/83/√ольф 3 ј≈ј давление масла
G13:44:14/model/382/220547/иротика
M13:44:18/renault/31/8531/как можно написать биографию
YA13:44:22/photo/10/3007/видео с приведени€
YA13:46:02/model/3426/дип тротл
YA13:46:13/model/1091/582516/пелотки крупным планом
YA13:47:15/model/2825/разные виды пиздЄнак
M13:47:22/model/2108/1090486/цены на платс
G13:47:34/model/5514/2835611/тапки из икеи
G13:48:01/golf-stream/38/5605/тюнинг гольф 2
G13:48:55/model/5417/2785337/запись разговора с гаишником
M13:49:31/model/1384/727107/‘итишист
M13:49:51/model/3102/1598311/памела фрукт
G13:51:55/golf-stream/30/4630/esso синтетика
YA13:52:28/vw/3058/1170065/дрочи не хочу
G13:52:35/model/5254/2696068/как кинуть банк
G13:53:07/model/1721/896693/жеское-порна
G13:53:10/model/1721/896693/жеское-порна
G13:53:13/model/1721/896693/жеское-порна
YA13:53:17/vw/1847/681510/www. дика€ архиде€ белье
M13:53:33/model/2010/45,8 отд. ћ–Ёќ √»Ѕƒƒ ÷јќ города ћосквы
G13:53:44/model/734/404586/Ќигерские “ачки
YA13:54:41/honda/153/46404/бесплатна€ порнуха с лолитами фото
YA13:55:06/model/1579/826968/ѕ–ЅЅ.–”
YA13:55:20/vw/1299/461188/что значит ака
YA13:55:22/model/1084/579630/жарить бабу
M13:56:08/vw/3287/1255750/мед плющевый
G13:56:20/model/434/248207/—кучные парни
YA13:56:23/vw/2832/1085588/¬решь собака
YA13:56:49/boards/16v
M13:57:16/kurilka/190/86706/голышом на пл€же
YA13:57:21/model/1574/824110/сэкс истории
G13:57:38/model/4817/2476428/как ананировать лучше
G13:58:00/vw/1459/527421/трусики жены
YA13:58:07/tushkan/4/682/не заводитс€ в сырую погоду golf
YA13:58:11/vw/3728/1398123/—З—В–Њ –Ј–∞ –Њ–њ–µ—А–∞—В–Њ—А 901 ?
R13:58:13/golflab/121/26954/знак ‘ольсвагена
YA13:58:22/vw/1210/426944/как занимаца сексом
YA13:58:41/model/2657/гдухарь
YA14:00:13/honda/871/245591/Rockrider 9.1
G14:00:13/vw/546/185379/читать ICQ history
G14:00:42/model/4550/2337046/ремни крокодиловые
G14:01:49/vw/3208/1227384/что такое гнусмасы
YA14:02:06/renault/14/3824/каток на дмитрофке
YA14:02:08/model/4068/2106597/аэрочино
YA14:02:39/model/2928/1508517/накачать мышцы члена
G14:03:30/golflab/82/19041/Ёмульси€ на крышке
G14:04:18/model/4173/2156641/худенька€ девочка
G14:04:23/honda/166/50997/вотик
G14:04:24/model/5520/2838901/маленька€ пиписька
G14:04:39/model/745/409218/маленька€ пиписька
YA14:04:50/honda/877/Ѕи-ћот
YA14:05:16/vwagainst/24/7352/все по 35
YA14:05:49/nissan/2/573/јчко.ru
YA14:05:51/nissan/5/1458/зоопорно
YA14:06:20/model/4019/2083403/как ражают детей
YA14:06:39/auspuff/27/3264/¬ыхлоп на nissan primera
G14:06:56/vw/657/223180/айсикью ком
G14:07:10/vw/530/180981/сколько бит в мегабайте
G14:07:12/model/2247/1154445/спб.мтс.ру
G14:07:17/model/4063/2104107/поебаца
M14:07:20/renault/8/2173/сцинарии на новый год
G14:07:44/model/4379/2255285/бад бойс блю
G14:08:05/vw/258/97627/как сделать кому: undisclosed-recipients:
M14:08:19/vw/1370/489977/зоосекс
M14:08:45/photo/18/5760/фото девушек в сапогах
M14:08:54/renault/20/5379/клитар
G14:08:57/model/5306/2724421/полева-3
M14:09:10/model/1850/966520/клитар
G14:09:21/honda/128/39458/посоветуйте антирадар
YA14:09:29/vwagainst/47/14753/осташка запчасти
G14:09:53/model/438/249640/магазины беспошлиной торговли
YA14:09:56/honda/650/194339/www.dom2.ru
YA14:09:59/vw/2454/936147/клизьма младенец
M14:10:04/model/1771/923426/клитар
YA14:10:42/honda/401/125160/страпончик
G14:11:19/model/5556/2859213/регион 177 199
G14:11:34/vw/3507/1330511/дилды
YA14:11:34/model/2125/1098322/часы работы паспортного стола ћарьино
YA14:11:35/vw/2882/1104008/кулинари€ к ресторану прага
YA14:12:13/model/1856/968886/"голосовой аппарат"
G14:13:49/photo/1/137/как в фотошопе сделать негатив
YA14:15:15/vw/2536/968660/бургфогель
YA14:15:33/vw/2529/965575/бургфогель
YA14:15:42/honda/401/125160/страпончик
M14:15:55/fishing/3/493/ фото рыбалки на средней волге
YA14:17:35/honda/727/214043/посоветуйте мини мойку
YA14:17:36/model/885/483498/сиськи девак
YA14:18:12/model/3851/1999637/ниавд что это
G14:18:26/vw/758/261971/преумножаешь
YA14:19:40/model/5512/2834156/амексин
YA14:19:44/model/3878/2013046/ѕарампампам
M14:20:12/fishing/3/493/ фото рыбалки на средней волге
M14:20:32/model/2956/1522502/ебуца
YA14:20:33/kurilka/172/78581/жопа нетребко
YA14:20:35/model/3851/1999642/‘Ћя√ј (јЋ№“) ∆≈—“№  ќ—я  (...) ћ»–ј∆
G14:20:36/vw/2536/968183/собачьи стаи
G14:20:37/honda/24/6682/∆ырные бабы
YA14:20:45/golflab/7/система питани€ golf2 1.3
YA14:21:02/model/3593/1871797/значение слова ѕриора
YA14:21:18/golflab/33/6142/vw vento очень проста€ машина
G14:21:36/model/5264/2701316/телачки
YA14:21:37/honda/243/77421/чел€бинск в картинках
G14:21:45/model/3902/2024547/илюзи€ убийства
YA14:22:00/model/4317/2225306/игры дл€ айфона
YA14:22:10/golflab/33/6142/vw vento очень проста€ машина
G14:22:17/vw/413/149157/ винпрокси
G14:22:32/model/257/152967/contacts.dat nokia
YA14:22:54/boards/16v
YA14:22:55/honda/1327/339992/гостиница крошка енот
YA14:23:55/honda/401/125160/страпончик
YA14:25:21/nissan/6/1491/педофил
G14:25:22/vw/1392/499720/жадн≥сть та щедр≥сть
YA14:26:13/model/4168/2153759/минед
YA14:26:37/model/2047/1060617/анек лучший
G14:27:41/vw/1459/527421/трусики жены
YA14:27:49/vw/2536/968660/бургфогель
YA14:28:20/renault/40/10978/большой пребольшой
M14:28:50/model/3329/1722233/длинноногие девченки
YA14:28:55/golf-stream/22/3499/свечи NGK BUR6ET
G14:29:05/vw/3696/1389243/ ак лучше подрочить
YA14:29:05/golf-stream/33/4975/как помен€ть сайлентблоки на √-3
G14:29:05/model/773/424268/“елемертвецы
YA14:29:08/honda/401/125160/страпончик
YA14:29:20/model/2650/продажа блюмат
G14:29:35/vw/3216/1230681/квип видео общение
G14:29:46/vw/1642/603866/тангента
G14:30:41/golflab/57/12640/ карбюратор 2EE
YA14:30:56/vw/2271/859271/потеют €ички
YA14:33:04/moto/5/1065/голые тетеньки
G14:33:09/model/5086/2612526/√лобализаци€-объективный процесс
G14:33:16/vw/1642/603863/тангента
G14:33:16/honda/1023/282304/молофь€
M14:33:28/model/3633/1891879/малолетние телки
YA14:33:54/honda/1409/354535/ƒавайте сломаем сусанину ногу
YA14:33:55/model/5512/2834156/амексин
YA14:33:59/model/4638/2385757/проституки и бл€ди
G14:34:03/listchannel/10как отключить тач пат
YA14:34:11/vw/2380/906019/ћаклюра + рецепт приготовлени€
YA14:34:15/golflab/40/7909/6 JX14H2 ET38
G14:34:34/vw/3096/1186272/северна€ €года
YA14:35:04/model/1325/695714/сноуборд в солнцево
YA14:35:15/golf-stream/12/2001/классные ники
YA14:35:45/golflab/134/29044/Keihen I
YA14:35:49/auspuff/6/выхлопна€ труба дл€ ауди от класики
YA14:35:51/honda/1342/343067/женские гинеталии
YA14:36:48/honda/1094/296285/сальмо
YA14:37:09/vw/2533/966847/ххх
YA14:37:29/golflab/105/23798/ћедные трубки 8мм
G14:37:41/model/2825/1451613/активдесктоп
G14:37:47/vw/1995/744274/полна€ негрит€нка
YA14:38:19/auspuff/28/3332/пламегаситель волга
G14:39:04/golflab/78/18077/зубилка
YA14:39:07/model/2996/1542023/оксилококцинум
YA14:39:24/model/3862/2004890/праститутки сочи
R14:39:25/vw/2305/874061/«ажыгалки зипо
YA14:39:46/boards/16v
YA14:39:49/model/1578/826381/порнознаменитост€ми
R14:40:15/model/5914/3047301/мой icq
R14:40:15/model/5914/3047301/мой icq
R14:40:46/model/5914/3047301/мой icq
R14:40:46/model/5914/3047301/мой icq
YA14:40:50/model/4518/2319413/Ћибе августин
YA14:40:51/model/1890/987349/грудаста€ блондинка с водителем
R14:41:23/honda/690/Ћ. √ранде- Ўалом јлейхем
M14:41:36/honda/678/202110/ ак правильно пить куантро
SL14:42:25/vw/2020/golflab
G14:42:28/model/2663/1370411/голенькие мужики
AB14:43:14/vw-club/42/3476/магнитола 1.8 din
YA14:43:39/honda/570/175020/—иськи 4-6 размера
G14:43:42/model/2010/1045162/выдано √»Ѕƒƒ
YA14:44:23/golflab/105/23798/ћедные трубки 8мм
M14:44:42/model/1043/560417/жоское порно
R14:44:55/nissan/3/842/ниссан пива
R14:45:19/model/5914/3047301/мой icq
R14:45:20/model/5914/3047301/мой icq
G14:45:28/vw/147/58365/Ўопенгауэром
YA14:45:38/model/2594/1330804/как доехать от кунцевской до молодогвардейской
YA14:45:54/model/3865/2006806/гейпорно
YA14:46:13/model/4460/2293045в Excel'е колонки - цифры, а не буквы
R14:46:17/model/5914/3047301/мой icq
M14:46:32/honda/1070/291909/тетрес
YA14:46:56/vw-club/30/2565/win-номер
YA14:47:19/vw-club/30/2565/win-номер
YA14:47:31/model/2096/1084135/аральный секс
G14:47:33/model/4173/2156413/“амарилла
YA14:47:34/golflab/107/24301/показани€ температуры охлаждающей жидкости на гольф-2
G14:47:35/vw/796/276637/истори€ сослагательного наклонени€
G14:48:11/vwagainst/22/6825/антифриз vw
M14:48:21/model/1011/547901/icq как заригистрироватьс€
M14:48:31/vw-club/21/1783/как починить л€мбду
YA14:48:51/golflab/107/24301/показани€ температуры охлаждающей жидкости на гольф-2
YA14:49:45/model/2781/1430341/на речном ал€ска куртка
G14:49:45/model/4686/2411378/пездарики
G14:50:17/model/4589/2357843/—пать голой
AP14:50:25/model/5142/2638625/французы
R14:51:21/honda/401/125195/зелЄный чай с женьшенем
G14:51:23/vw/3022/1155901/херн
G14:51:34/model/3686/1918791/стратегии motorwars
G14:51:57/kurilka/94/40715/читатькраткое содержание книги ќскар ”айльд
G14:51:59/model/4373/2252726/бествотч
G14:52:11/model/3686/1918791/стратегии motorwars
YA14:52:11/boards/16v
G14:52:14/model/995/540160/cs демки
G14:52:27/vw/149/59311/—мешное ченить
R14:53:08/auspuff/18/2277/согнуть алюминиевую трубу
G14:53:17/model/5452/2802368/солт лейк сити америку гасите
YA14:53:43/golflab/128/28093/глючит трамблЄр
G14:54:40/vw/2429/925890/эректильность
YA14:54:51/model/3854/2001251/обычные фотки девчонок
YA14:55:00/model/3306/1710599/фильмы категории D
G14:55:24/model/1871/976571/Ёсенциале
G14:55:50/model/3031/1560320/дивачка
YA14:55:54/golf-stream/8/1370/б.у мкпп гольф 2
YA14:56:13/kurilka/59/24355/света пусечкина
YA14:56:16/golflab/96/22125/двигатель AAM
YA14:56:19/model/2620/1345680/большие сисьски
YA14:56:34/model/2620/1345680/большие сисьски
YA14:56:45/vw/3042/1164438/педигрипал
YA14:57:31/model/1721/896693/жЄска€ порна
M14:57:38/nissan/5/1458/зоопорно
M14:57:43/model/4116/2129249/субботина кат€
YA14:57:52/photo/20/6131/фотоматикс
YA14:57:52/model/1286/голыи тьолки
YA14:57:58/model/1286/голыи тьолки
G14:58:47/model/3041/1565100/падрачи
G14:59:08/vw/3334/1270624/падрачи
YA14:59:11/vw-club/9/627/не падают обороты на фольксвагене гольф 3
YA14:59:28/model/2928/1508460/портной напиваетс€ в стельку
G15:00:17/model/693/384898/пильмешки
YA15:00:22/honda/166/кларенс бодикер
G15:00:25/model/109/66595/поло с костюмом
YA15:00:57/honda/1364/347326/как надо трахать проститутку
YA15:01:10/auspuff/28/3317/пламегаситель mg-race
YA15:01:19/vw/1210/426944/как занимаца сексом дет€м
YA15:01:40/honda/166/кларенс бодикер
YA15:02:23/honda/120/37444/жопа на весь экран
G15:02:26/vw/75/31151/¬≈Ѕ ј—№ ј
G15:02:32/vw/3717/1395069/Sono cose che capitano
YA15:02:41/honda/249/79298/сисечки
YA15:02:58/golflab/21/3414/производство локеров дл€ авто
YA15:02:59/nissan/5/1458/зоопорно
M15:03:18/model/3732/генбенг
YA15:03:22/model/803/440636/пориво
G15:03:30/model/4903/2519709/кЄрхир
YA15:04:03/honda/1311/337336/новафилм.тв
M15:04:18/model/4220/2180094/зассыхи
YA15:04:18/auspuff/23/2862/паук на 2109
YA15:04:35/vw/3612/1363544/глоуфиш
R15:04:38/honda/505/157580/јнализ цен на основные нефтепродукты
YA15:04:54/auspuff/29/3413/пламегаситель где купить
G15:04:58/model/3359/1741049/—ектар газа
YA15:05:22/model/4246/2192568/инди одежда
M15:05:36/model/4116/2128914/субботина юл€
M15:06:08/honda/1042/286272алладин песн€ к мультфильму
YA15:06:59/auspuff/23/2869/паук на 2109
YA15:07:00/auspuff/23/2869/паук на 2109
YA15:07:19/kurilka/133/60053/http://www.antijob.ru
YA15:08:02/honda/91/28309/гаи очаково
YA15:08:13/vw/3344/1274186скачать музыку формата дтс
M15:08:13/vw/3612/1363544/глоуфиш
YA15:09:27/koleso/7/412/?all=n олпаки на VW
YA15:09:41/model/1091/582516/пелотка крупным планом
YA15:10:17/model/1363/715281/обувь дерьмова€
YA15:10:33/model/5512/2834156/амексин
YA15:11:04/golflab/128/28038/маслоотделитель ¬ј«-2106
YA15:11:40/kurilka/133/60053/antijob.ru
YA15:12:41/golf-stream/16/2663/что такое датчик холостого хода
G15:13:09/model/5213/2674686/соси писю
YA15:13:09/golfclub/46/9803/колпак на литой диск VW
YA15:13:39/honda/210/67445/bbons
M15:13:55/model/4116/2128914/субботина юл€ сестра
G15:14:02/model/826/451607/ну пажалусто
YA15:14:29/honda/1134/303517/аунах
YA15:14:31/golfclub/46/9803/колпак на литой диск VW
YA15:15:17/vw/2505/955158/парник.ру
G15:15:59/vw/3525/1336649/мосналог.ру
G15:16:27/vw/3805/1422028/михайлов министр википеди€
G15:16:47/model/5205/2670665/полуголые тЄлки
G15:17:01/model/5306/2724343/вздрочни
M15:17:03/model/1288/676702/сигареты оптом
G15:17:37/model/5461/2806363/мистер гавн€шка
G15:17:40/model/5461/2806343/мистер гавн€шка
R15:18:02/honda/946/ –±–Њ–ї—В–Њ–Љ–Њ–є–Ї–∞?
G15:18:19/model/5467/2809716/јналитик-это
YA15:19:15/vw/504/174880/сн€ть крыло с Golf
G15:20:06/model/4036/2091140/ артина Ёдуарда-јнри јврил€.
G15:20:11/model/90/53784/»змена! -- крикнул ћальчиш- ибальчиш
G15:20:37/model/1741/908545/челавек в телагрейке
YA15:20:44/vw/74/30737/базар в аське
R15:20:52/auspuff/4/456/ѕј”  ¬ј« 2107
G15:20:57/model/1741/908545/челавек в телагрейке
G15:21:02/model/3073/1582303/челавек в телагрейке
G15:21:16/model/1741/908545/челавек в телагрейке
YA15:21:30/vw/3043/1164835/купить ноут дл€ девушки
G15:22:02/vw/1738/640180/неправильно набран номер
G15:22:06/model/1741/908545/челавек в телагрейке
G15:22:22/model/1741/908545/челавек в телагрейке
M15:23:06/model/3672/1911708/јднакласники
YA15:23:45/vw/419/150518/нигерский рэп
YA15:23:58/model/2125/1098322/график работы паспортного стола в ћарьино
YA15:24:02/model/814/445627/призирватив
G15:24:22/model/70/41978/где вз€ть сухой лЄд
G15:25:08/model/3232/1671222/пиписька носорога
G15:25:31/vw/3738/1400580/тахопицца
YA15:26:37/model/2547/1305189/дл€ дрочки
YA15:27:08/golflab/106/24081/1.6 AKL
R15:27:27/honda/786/225959/асетр
R15:27:31/honda/786/225959/асетр
G15:27:33/vw/2046/765546/отлут
G15:27:47/vw/1413/508392/априоре
M15:28:19/nissan/5/1458/зоопорно
G15:28:21/model/4087/2115601/махнатка
M15:28:40/honda/1180/313264/как одному дрочить
G15:29:02/model/1659/864990/трипак и его симптомы
YA15:29:10/model/3615/1883410/молодые телочки с классными сиськами
YA15:29:23/model/2369/1215383/Ѕ≈—ѕЋј“Ќќ ѕќƒ–ќ„»“№
G15:29:34/model/775/425499/нтв-програма
N15:29:46/model/2583/1324656/у латыша только и душа
G15:29:50/vw/2971/1136762/¬ окне автобуса поплыл ебаный военкомат
M15:30:21/honda/42/12593/петек филип
G15:30:39/model/2531/1296492/секстелк
G15:30:45/vw/764/264382/реле фар
YA15:31:19/model/2288/1174443/децки-игры
G15:31:33/model/2622/1346653/ риатин
G15:31:47/model/207/122435/teen16.com
YA15:31:59/model/1820/детский картинг соривновани€
YA15:32:09/model/3865/2006833/“акто
YA15:32:14/renault/64/16784/сайт ананистов мужиков
G15:32:29/model/4589/2357498/ иддис
YA15:32:35/model/1528/800818/–њ–Њ—А–∞ –ї–Є —Б—В–∞–≤–Є—В—М —С–ї–Ї—Г?
YA15:32:49/kurilka/255/117050/сиди как дура без подарка
G15:32:58/model/4197/2168064/свобода бывает
YA15:33:00/nissan/5/1458/зоопорно
YA15:33:07/honda/1421/355995/€ из кармана достану два кос€ка
YA15:33:07/vw-club/28/2391/√ольф 3 плохо заводитс€ в морозы
G15:33:24/model/5702/2935553/castrol tda
M15:34:40/model/2548/1305386/√ќЋџ≈ ∆ЁЌў»Ќџ
G15:34:47/model/4475/2300464/ну ты барыга
YA15:35:21/model/3100/1597093/зоофилки
YA15:35:25/honda/159/48164/порножесть.ру
YA15:35:35/model/2125/1098322/паспортный стол в ћарьино
YA15:36:52/model/793/435100/винтовкой мосина руки пахнут
M15:36:55/honda/439/137319/музыка бисплатно
G15:37:01/vw/664/225683/исходники лотусе
R15:37:01/vw/2349/ определение-вуерист
YA15:37:18/model/4119/2130429/жопа в экономике
YA15:37:37/model/3248/1678739/нупагади
YA15:37:44/model/2465/1263921/«олотой дождь выдача
YA15:37:46/vw/1112/389980/гольф 4 не исправен датчик температуры воздуха
G15:37:55/vw/3601/1359737/трасвестит
G15:38:03/model/4466/2296426/писики
G15:38:13/vw/2111/791771/"корабли не выход€т в понедельник"
G15:38:15/vw/3601/1359737/трасвестит
YA15:38:19/model/1769/922719/картинка
G15:38:58/vw/2111/791756/"корабли не выход€т в понедельник"
YA15:40:13/golflab/118/26344/гольф 4 жидкость гидроусилител€
YA15:40:30/vw-club/32/2693/не падают обороты на фольксвагене golf 3
YA15:40:31/honda/1230/322724/obyasnitelnaya.exe
YA15:40:35/honda/1042/286272мультфильм алладин
YA15:40:49/golflab/111/24944/выборам алюминиевый или медный радиатор отопител€
YA15:41:08/kurilka/47/19006/четверостишие о прекрасной девушки
YA15:41:22/model/4155/2147875/игры дл€ айпод тач
YA15:41:23/golflab/79/18283/после прогрева двигател€ глохнет
YA15:43:04/model/2414/1237856/–Ї–∞–Ї –њ–µ—А–µ–≤–Њ–і–Є—В—Б—П —Б–µ –ї—П –≤–Є ?
M15:44:04/vw/457/161009/ ружка дл€ клизьмы
YA15:44:05/auspuff/15/1822/катализатор дл€ тойоты
G15:44:08/vw/1884/698010/атс 571
M15:44:13/model/2581/1323552/ ружка дл€ клизьмы
YA15:44:35/model/1001/542817/автомагазин русь на нагорной
G15:45:52/honda/1341/342703/–200 билет
G15:45:54/vw/1645/604787/борюсь со сном
YA15:46:17/vw/3311/1263910/ померить хуй
G15:46:50/honda/1407/354201/подушкин на таганке
YA15:46:54/model/1578/826518/ћ≈√» ћќЋЋ
YA15:47:06/model/1610/олик бу
YA15:47:11/honda/1363/347050/lada fovorit
YA15:47:13/model/1256/бмвм5
YA15:47:14/auspuff/23/2838/ммс легнум
YA15:47:24/golflab/56/ремонт печки Golf2
M15:47:31/vw/3039/1162973/пезанска€ башн€
YA15:47:46/model/3634/1892597/как прочитать чужие смс
YA15:48:14/auspuff/24/2927/(филитек|"фили тек"|filitek|filitec|"fili tek"|filitech)
YA15:48:15/vw/3494/1326492/расширение xlsx
YA15:48:42/boards/16v
M15:48:50/kurilka/105/45928/„то такое лобок у мущин
YA15:48:59/model/2918/1503051/эй режиссер заканчивай съемку
YA15:49:36/vw-club/27/2232/пассат б5
G15:50:04/model/3594/1872219/ч€т дл€ девачек
YA15:50:19/model/2806/1441924/волшебные предсказани€
YA15:50:20/model/1294/679529/facesitting
G15:50:32/model/2172/1118855/“вой новый бойфренд пробил все пароли, вскрыл все твои €щики
YA15:50:35/kurilka/25/7689/–≤–Њ—В –Ї—В–Њ –њ—А–Є–і—Г–Љ–∞–ї: –∞–Ї—Г–µ—В—М, –і–∞–є—В–µ –і–≤–µ?
YA15:50:45/model/1831/956441/съешь ка за€чий помет он
G15:51:31/model/5280/2709663/трахнитесь
YA15:51:37/model/691/384226/асикю
G15:51:47/model/5280/2709663/трахнитесь
G15:51:50/model/107/65243/”бока
G15:52:21/vw/1764/649560/может что то в консерватории поправить
YA15:52:26/vw/3374/1285812/сол€рка замерзла
M15:53:46/vwagainst/24/7352/все по 35
YA15:53:56/honda/1004/277614/сол€рка замерзла
G15:53:57/vw/1603/588254/может что то в консерватории поправить
YA15:54:20/model/1114/593692/ши-цу фото
G15:54:26/vw/2606/998568/кваттро на льду
YA15:55:07/kurilka/108/47417/тормозит IE
G15:55:14/model/1068/572004/I never knew how much i love you
G15:55:17/model/5031/2585078/что такое ћѕ—
YA15:55:18/honda/1331/340821/картинки с цветочками
G15:56:03/model/5330/2736572/ебЄмs€
YA15:56:04/golflab/100/22949/ветровики на jetta
YA15:56:59/vw/3877/1444407как узнать по инн или огрн
M15:57:35/model/3774/дима билан занимаица сексом
R15:58:15/nissan/12/3703/?all=yмуровьи
G15:58:40/model/3492/1817740/сколько стоит Chevy K5 CUCV
YA15:58:43/model/1337/702149/» ј¬ќ
YA15:58:54/honda/92/28583/паорно
G15:59:38/model/4301/2217962/картинки 16х20
G15:59:39/model/5437/2795218/—З–µ–Љ —Е–Њ—А–Њ—И –Є–љ—В–µ—А–љ–µ—В?
YA16:01:46/16v/7/745/етка 7
M16:02:12/honda/57/18090/ все виды касички
YA16:03:13/auspuff/3/439/ѕр€моток на galant
SL16:03:46/model/5848/exoncam,com
M16:03:59/model/3862/2004890/праститутки сочи
YA16:04:22/model/3185/1645942/шутки про семью
M16:04:56/model/1289/676968/ќ–Ћ®Ќј 
YA16:05:10/golflab/35/6712/гидроручник
G16:05:13/vw/3117/1194895/топил  ота
YA16:05:53/honda/42/12593/петек филип
M16:06:11/nissan/12/3703/муровьи
YA16:06:35/honda/1073/292383/колотушка тук тук тук спит животное паук
AP16:07:06/model/5249/2693595/еб
YA16:07:15/honda/1073/292383/колотушка тук тук тук спит животное паук
YA16:07:21/honda/42/12593/петек филип на тверском бульваре
M16:07:37/model/3015/–исунак тигра
M16:07:57/model/3570/1859798/ѕорнофантазии
YA16:08:09/model/2067/1069455/dos Ѕугага
YA16:08:19/honda/545/168827/кутак баш
YA16:08:19/model/3802/1975678/шорхаус
M16:08:25/honda/1315/337945/рыбаловные снасти
YA16:08:31/model/2526/1294448/ми пиачо
YA16:09:01/honda/1422/356197/Don't drink and drive...smoke and fly
YA16:10:25/kurilka/47/18835/спирт, при какой температуре замерзает
M16:10:39/model/2482/1272473/клитер
G16:10:43/vw/3593/1356720/“рахни свою первую любовь
YA16:11:59/model/4953/2545466/подставки дл€ казанов
G16:12:13/vw/742/255998/ауди rs3
YA16:12:17/model/5512/2834156/амексин
YA16:13:18/model/2526/1294448/ћи пиачо
YA16:13:54/vw/154/автомобильное масло ≈——ќ ультро
YA16:13:55/honda/1178/312784/”стройство и обслуживание дизельных двигателей с электронной системой управлени€
YA16:13:59/model/2526/ћи пиачо
R16:14:01/honda/788/226668/поликлиника ”правлени€ делами президента на √рохольском
R16:14:02/honda/788/226668/поликлиника ”правлени€ делами президента на √рохольском
YA16:14:06/honda/1355/346051/простетутки
G16:14:07/nissan/24/7904/—Е—Г–ї–Є –і–µ–ї–∞—В—М?
G16:14:17/model/4862/2498639/гогли-могли
YA16:14:19/vw/1105/387622/"range rover classic"
YA16:14:27/model/1294/679529/facesitting
YA16:14:32/vw/3408/1297252/разновидности морских червей
YA16:15:12/model/4646/2389795/„то такое медиа-текст
G16:15:55/model/3159/1631178/вовов
G16:16:03/model/4089/2116305/макось на компе
G16:16:07/model/3159/1631178/вовов
G16:16:08/vw/3561/1346483/ ... мальчик, ты - баклажан!!! ...
YA16:16:42/golflab/107/24301/указатель температуры охлаждающей жидкости на гольф-2
YA16:16:51/golflab/107/24301/указатель температуры охлаждающей жидкости на гольф-2
YA16:17:31/honda/1205/316994/“олстенька€ попка
G16:17:48/model/5077/2607632/наебулина
G16:17:55/honda/583/178099/паздравлени€ с новым годом
YA16:17:58/model/2060/1066887/пушап это
YA16:18:08/golf-stream/12/2001/классный ник
G16:18:46/vw/1120/392695/cmcrr
G16:19:02/model/4649/2391655/как супец
G16:19:17/model/4033/2090225/трахнут
G16:19:54/model/717/396450/реквием по мичте
M16:19:55/model/691/384226/асикю
G16:20:05/vw/1915/711128/тупой паша.
YA16:20:18/model/2427/1244280/на какой руке замужние нос€т кольцо
YA16:20:18/model/5512/2834156/амексин
G16:20:27/vw/869/303764/ратрачить
YA16:20:41/model/4635/2383868/изнасилавание
YA16:21:00/model/954/погода вкараганде
YA16:21:04/honda/160/48573/хрен с ним с ружьЄм
YA16:21:43/model/4611/2370116/ирина феррари
G16:22:01/model/2989/1539058/ѕрофилактика скалиоза
G16:23:07/vw/1413/508392/априоре значение
G16:23:50/model/2333/1196348/совецкое порно
G16:24:14/kurilka/131/59194/скво женщина
G16:24:33/model/4812/2473570/порно ютюб
YA16:24:45/golflab/116/26068/evroauto
YA16:25:25/kurilka/74/31401/содержание мурен в аквариуме
M16:26:32/vw/1667/текст песни "дабуди дабуда"
YA16:26:34/model/1431/751115/юра лох
G16:27:38/model/2246/1154223/стрептис
G16:28:10/model/5240/2689440/антифриз рекомендованный дл€ bmw
YA16:28:24/golf-stream/14/2309/golf 3 система охлаждени€
M16:28:28/model/3358/1740297/skyp.com
G16:28:39/model/5240/2689440/антифриз рекомендованный дл€ bmw
YA16:28:40/model/1095/584376/древний »ерополис
YA16:29:00/honda/1199/315948/нокиа сироко эдишн
G16:29:16/vw/1709/629479/детерминизм-это
M16:29:37/vw/1376/492579/жолтое такси
YA16:29:46/honda/282/89857/красивые сиски
M16:30:02/model/3358/1740297/skyp.com
G16:30:48/model/2022/1049736/суходрочка
YA16:30:51/honda/1081/293775/пиздища
YA16:31:29/auspuff/28/3317/пламегаситель mg-race
YA16:31:36/vw/112/45349/не поглумились над проституткой
YA16:32:11/auspuff/22/2732/пламегаситель mg-race
G16:32:11/model/3167/1635842/апендицыт
G16:32:42/model/3167/1635842/апендицыт
YA16:32:48/vw/112/45349/не поглумились над проституткой
G16:32:48/model/3599/1875504/ заебали сплетни
YA16:33:08/honda/545/168893/ты мал и глуп и не видал больших залуп
YA16:33:45/honda/74/23439/Ёкзисте
YA16:33:50/vw-club/15/1192/инструкции по эксплуатации автомагнитол
G16:34:03/model/653/362972/что такое "зеркальный рейд"
YA16:34:50/model/1294/679529/facesitting
YA16:35:06/model/1294/679529/facesitting
G16:35:17/model/1246/653687/гидрапоника
M16:35:36/model/5/2349/как удалить кукиз из оперы
YA16:35:39/model/4442/2284769/как развести лоха
G16:35:44/vw/2410/917995/фуракэ
YA16:35:49/megasquirt/megasquirt
G16:35:55/vw/1901/704962/обосрацца
YA16:36:12/honda/153/46394/StyleXP Free download скачать бесплатно
G16:36:31/vw/1766/650468/caribe.sys
YA16:36:33/vwagainst/1/121/диам
G16:36:37/model/1674/872026/питирлинк
YA16:36:47/boards/16v
YA16:37:48/model/4512/2317448/ты мал и глуп и не видал больших залуп
G16:38:01/model/5178/2656322/мы реб€та удалые
YA16:38:41/model/3592/1871552/купить пульверизатор
YA16:39:15/nissan/5/1458/«оопорно
YA16:39:21/model/1114/593676/как растут сиськи
YA16:39:36/model/1468/769991/коктейль месть за миньет
YA16:40:37/model/475/269295/каток в нескучном саду
YA16:40:55/model/710/392929/ трансвистит
G16:41:13/vw/3527/1337362/писипи сони
G16:41:15/honda/677/201902/блендер браун мультиквик
M16:41:24/photo/21/6401/¬се про елки
YA16:41:34/vw/1357/484772/секс инди - это
YA16:42:49/model/2460/1260849/девочка трахаеца с мальчиком
G16:43:21/vw/1687/620992/–осси€ срана€ страна
YA16:44:04/vwagainst/53/16220/в поле каждый колосок
G16:44:41/model/442/252300/я теб€ поцелую....потом...если захочешь...
G16:45:25/model/4630/2380909/ћонин —ерЄжа
M16:45:57/vw/867/где купить зимоходы?
YA16:46:15/16v/3/197/электросхемы VW passat b2
YA16:46:39/ps/5/835/драйвера форсунок
AP16:47:17/kurilka/98/42404/narod.ru/disk/
YA16:47:41/model/2087/1079459/страпонщица
G16:47:43/model/4494/2309406/что подарить дев€тилетней девочке
YA16:48:24/model/1712/892233/adidas торшин
YA16:48:47/model/1553/813284/костюм инопланет€нина
YA16:49:20/honda/401/125160/страпончик
G16:49:39/model/3270/1690700/замерзла незамерзайка
G16:49:53/model/3338/1728140/Ёкгибиционизм
G16:49:57/model/939/511238/костюм адама
M16:49:59/honda/514/экономическо€ теори€
G16:50:15/vw/1603/588265/’ароший секс
YA16:50:15/honda/1234/323541/"ЅјЌ »" син€ки
YA16:50:37/kurilka/133/60053/антиджоб.ru
G16:51:26/model/1693/881620/крас≥вие тьолки
M16:51:32/honda/1216/318934/электро шокеры
YA16:52:13/model/2062/1067323/что брать в дарогу
YA16:52:40/model/2171/1118313/касметика децка€
G16:53:05/model/3624/1887962/прикол ѕро задротов
G16:53:23/model/4419/2274315/„то такое смегма
N16:53:30/vwagainst/1/14/подготовка Ќива “1
G16:53:39/model/3916/2032061/долбоеб что значит
G16:53:52/model/5451/2802023/шашлама
YA16:53:57/vw/3612/1363544/глоуфиш
M16:54:11/model/2950/1519644/ новогодние кастюмы
G16:54:19/golflab/24/4087/подсос автоматический
G16:54:26/model/784/430535/рпо-а
YA16:55:49/honda/692/205556/творческий климакс
YA16:56:12/vw/3668/1381098/эксперименты с трупами
G16:56:25/model/2523/1292584/капрезе
G16:56:25/honda/871/245591/Rockrider 9.1
G16:56:38/model/4657/2396498/боканчино
G16:56:57/model/5697/2932444/фандю
YA16:57:08/honda/1082/293910/как обматать хоккейную клюшку
G16:57:30/model/2246/1154223/—“–≈ѕ“»—
YA16:58:05/model/4156/2148283/one two three o'clock four o'clock rock
G16:58:08/vw/1603/588038/кризис 98г
YA16:58:09/model/4553/2338409/сравнение килограмовых ноутбуков
YA16:58:25/model/4219/2179696/смартон.ру
YA16:58:30/model/4553/2338497/сравнение килограмовых ноутбуков
G16:59:47/model/4523/2321622/капрезе
YA16:59:59/honda/76/23879/встретились два друга видимо не виделись давно
G17:01:38/vw/564/190351/–Ч–∞–≤–Є–і–Њ–≤–∞—В–ђ –≠–Ґ–Ю –ЯL–Ю–•–Ю?
YA17:02:57/honda/1004/фтп картинки раста
G17:03:18/model/3023/1556328/хорон€ка
M17:03:26/vw/2882/1104008/кулинари€ ресторана прага
R17:03:44/honda/550/170032/магнитофон BMW
M17:03:52/model/3875/2011590/автасалон
YA17:03:55/vw-club/21/1779/kzm,lf-датчик
YA17:04:31/nissan/5/1458/зоопорно
G17:04:39/model/2088/1080006/бить ремнем
G17:04:47/vst/6/1253≈сли вз€ть цветной бумаги
YA17:06:00/model/803/440636/пориво
M17:06:23/model/3747/оптимус праем
YA17:06:52/vw-club/30/установка акустики на фольксваген гольф 5
YA17:06:58/vw/3616/1364853/европа плюс вы выиграли ноутбук
YA17:07:17/model/2098/1085593/сони гавно
YA17:07:36/nissan/5/1458/зоопорно
G17:08:02/vw/3067/1173359/ солаты
YA17:08:03/model/2682/1381148/где купить мужские варежки
YA17:08:03/honda/558/172321/√алстук дл€ черной рубашки
G17:08:12/model/1892/988813/ солаты
G17:08:28/golflab/91/21167/ радио √амма v
YA17:08:43/honda/558/172321/√алстук дл€ черной рубашки
YA17:09:08/vw/3016/1153493/вшы
YA17:09:11/renault/51/13949/зоофели€
G17:09:12/model/376/217692/омез
YA17:09:18/model/2236/1149397/рипкерл
YA17:09:35/honda/789/ѕонтиак вайт
YA17:10:01/honda/229/гарем султана евнухи порно
G17:10:23/model/4911/2524305/это-хокку
YA17:10:48/model/4052/2099339/sony ericsson w 880i
G17:11:11/honda/829/236127/цицъки
G17:11:29/golflab/91/21167/ радио √амма v
G17:11:59/model/553/312754/pod shuffle
G17:12:15/model/4912/2524825/"установите клиента по умолчанию"
G17:13:11/model/264/157660/гламурный парень
AP17:13:21/model/5366/2756436/”збечки
YA17:13:27/model/4141/2141036/аппарат дл€ глажки рубашек
YA17:13:42/model/2087/1079459/страпонщица
G17:13:59/vw/3314/1264911/прожиг завершилс€ неудачей
YA17:14:01/kurilka/76/32878/секс на корпоративе
YA17:14:26/model/1222/642010/покажи сиськи
G17:15:02/model/600/337660/–Ї–∞–Ї –Ї–Њ–љ—З–∞—О—В –њ–∞—Ж–∞–љ—Л?
G17:15:14/model/4173/2156413/“амарилла
M17:15:18/model/2820/1449401/ ј  ѕј—“–ќ»“№ ƒќћ
M17:15:18/model/2820/1449401/ ј  ѕј—“–ќ»“№ ƒќћ
G17:15:31/golflab/110/24741/карбюратор 2е2
YA17:16:00/model/4928/2533422/собака выебала бабу
YA17:16:21/honda/586/178898/мерчендайзинг ќЅ»
YA17:16:59/vw/2908/1113907/вАФ –І—В–Њ –ґ–µ –Ј–∞ –≤—Б–µ–Љ —Н—В–Є–Љ –±—Г–і–µ—В? вАФ –Р –±—Г–і–µ—В —П–љ–≤–∞—А—М,
G17:18:04/model/30/18067/пов€зка дл€ глаз
YA17:18:24/vwagainst/36/11231/форд фокус 2 врс
YA17:18:27/kurilka/32/12012–≥–ї—О–Ї–Њ–Ј–∞ –≤ –∞–Љ–њ—Г–ї–∞—Е: –Љ–Њ–ґ–љ–Њ –ї–Є –њ–Є—В—М?
G17:18:35/golflab/110/24741/карбюратор 2е2
YA17:18:42/vw-club/19/1523/двд дл€ туарега
G17:18:51/vw/2623/1006372/жжжжооошш
G17:19:18/golflab/26/4649/карбюратор 2е2
YA17:20:00/model/1288/676702/сигареты оптом
G17:20:05/model/3270/1690700/незамерзайка замерзла
YA17:20:10/vw/1370/489977/зоосекс
YA17:20:25/vw/2866/1098244/де болт
YA17:20:27/model/4057/2101936/rfr elfkbncx
G17:20:33/vw/2542/971119/скоч-терьер
G17:20:38/vw/285/106575/рульные вещи
YA17:20:44/model/1000/adidas торшн
G17:20:46/vw/3368/1283439/спуск куркино
G17:20:49/golfclub/40/8075/карбюратор 2е2
G17:21:01/model/5695/2931093/ј“ј ј —≈–џ’
YA17:21:07/model/1640/855571/мимори€
YA17:21:19/vw-club/41/3431/какое масло в двигатель фольксваген гольф 2 -1988г.
M17:21:27/nissan/5/1458/зоопорно
YA17:21:33/vw/3755/какой выбрать стиралку нечувствительную к перепадам напр€жений
YA17:21:37/model/2455/1258584/как доехать до тамбова
G17:21:51/vw/3186/1220284/"–аскаленные добела медсестры"
YA17:22:04/rally-club/2/129/каркас ћаслов
R17:22:31/honda/687/204304/сифелез
YA17:22:32/model/1251/656517/брелок от тиффани
G17:22:36/honda/683/203176/страпонить
G17:22:50/model/1428/749645/белье Barbara
YA17:23:18/model/2455/1258584/как доехать до тамбова
YA17:23:20/vw/2914/1115803/как доехать до тамбова
G17:23:27/model/2825/1451738/как драчить
YA17:23:30/photo/20/6152/никон д40
G17:23:45/model/5237/2687900/олесь подерев€нський гамлет
G17:23:50/model/4839/2486287/сережа писечка
G17:24:01/vw/586/197539/обизь€ны
YA17:24:34/model/5512/2834156/амексин
YA17:25:03/model/2455/1258584/как доехать до тамбова
YA17:25:07/model/2670/1374058/зуд в анале
G17:25:10/vw/675/229358/ну как дети, чесслово
YA17:26:34/golflab/113/25327/ плавают обороты ауди 80 в4
G17:26:51/model/5653/2910323/јленушка и ≈ремушка
YA17:26:55/model/1736/905272/где купить утку
YA17:27:03/model/2624/1347471/пердак
YA17:27:35/vw/1206/тойота приус гибрид
M17:27:38/rally-club/1/50/переделка 8 клапанного мотора на 16 клапанный
YA17:27:43/vw/2767/1060581/где скачать маткад
G17:28:23/vw/3873/1442755/ноки€5800
YA17:28:33/model/816/446890/ћальчики √алубые
YA17:28:35/vwagainst/34/10503/хайэйс
YA17:29:03/ps/5/767/описание протокола SPI
YA17:29:33/boards/16v
G17:29:44/model/4554/2339040/кто родилс€ в €нваре вставай, вставай, вставай
M17:29:56/honda/1181/313366/кто родилс€ в €нваре вставай, вставай, вставай
G17:30:20/vw/859/299555/конгратул€ции
YA17:30:31/honda/1232/323264/чем отличаетс€ hd ready от full hd
R17:30:43/honda/685/203827/генотаки
M17:30:52/model/3395/вакансии √осучириждени€
G17:30:55/model/4426/2277788/разкразки
YA17:31:06/nissan/5/1458/зоопорно
YA17:31:16/model/1038/ астюм взрослый "белка"
YA17:31:23/model/2273/1167688/дебил андрюша
G17:31:25/model/535/303166/сильно стесн€юсь!!
YA17:32:24/golflab/112/25141/пискаревский 32
YA17:32:36/golflab/70/15773/выт€нуть лонжерон
G17:32:42/model/5658/2912542/колиордов
YA17:32:44/vw/3382/1288528/кзот с комментари€ми 2008
YA17:33:07/honda/159/48164/порножесть бесплатно
YA17:33:18/vw-club/39/3235/вискомуфта
YA17:33:53/honda/152/46088/автокресла максикози б\у
G17:33:53/model/3070/1580427/плеер хоро
G17:34:53/golflab/11/1742/поедеш
YA17:35:03/golflab/123/27344/замена двигател€ и закон
G17:35:08/model/3916/2031736/тачка на пракачку
YA17:36:19/model/4634/2382905/сиски
M17:36:41/model/3868/2008244/тетки за 30
YA17:36:57/honda/92/28583/паорно
G17:37:38/model/5556/2859752/–еменсом
YA17:37:47/vw/3072/1175438/—мотреть голых тЄлочек
YA17:37:58/renault/17/guroff@yandex.ru
YA17:39:10/renault/17/guroff@yandex.ru
YA17:39:12/auspuff/17/2134/¬ыпускна€ система на bmw e46
YA17:39:21/model/797/437336/это ли не песдетс
R17:39:21/model/683/эканомика истонии
YA17:39:27/auspuff/6/740/ атализатор пежо 406
YA17:39:41/auspuff/10/1229/тюнинг пежо307
G17:39:56/vw/3067/1173359/ солаты
G17:40:00/model/204/120412/гиперэкстензию
G17:40:08/model/1892/988813/ солаты
G17:40:59/model/5275/2706706/"милена симонова"
G17:41:35/model/5867/3022522/на душе скрибут кошки
G17:41:43/model/5275/2706706/"милена симонова"
YA17:41:48/kurilka/65/27705/матерные стишки
G17:41:56/model/5275/2706706/"милена симонова"
G17:42:05/model/5275/2706706/"милена симонова"
G17:42:09/model/5275/2706706/"милена симонова"
YA17:42:24/golf-stream/12/2001/классные ники
YA17:42:38/model/4773/2454799/ расивые грузинки
YA17:42:45/model/4144/2142299/тЄлки с маникюром
YA17:43:39/auspuff/10/1223/тюнинг пежо307
YA17:44:04/model/3542/1845364/джессика джей
G17:44:44/vw/1865/689138/ћадам или ћадмазель
YA17:44:58/kurilka/10/3161/ рождественские псалмы
G17:45:29/model/1153/612373/косматый облак
G17:46:18/honda/839/238400/dablya
G17:46:32/model/1515/793196/матизовод
G17:46:41/vw/3775/1412252/сушона€ рыба
G17:47:04/model/5514/2835155/richard matheson скачать
G17:47:36/16v/9/986/рено f3r
YA17:47:45/vw-club/5/302/“емпературный режим инжектора
G17:47:47/model/441/251625/дрочилка
YA17:48:05/model/2087/1079459/страпонщица
G17:48:59/vw/673/228620/ –£ –Ґ–Х–±–ѓ –Ь–Р–У–Э–Х–Ґ–Ш–І–Х–°–Ъ–Ш–Щ –Т–Ч–У–Ы–ѓ–Ф??
G17:50:35/vw/3109/1191710/ имени и сходство
G17:50:36/vw/1285/455906/Perebit
G17:50:40/vw-club/23/1918/сервис vw в питере
YA17:50:48/model/4702/2419315/zipphone
G17:50:52/honda/385/120757/подзалупный творожок
YA17:51:50/model/1580/827686/прощай, со всех вокзалов
G17:52:02/vw/1244/440669/внутренний айпи
YA17:52:08/megasquirt/ьупфыйгшке
YA17:52:31/model/1886/985423/смайлинк
YA17:52:32/model/3851/1999805/посчитать айкью
M17:52:53/golf-stream/12/2001/ лассные ники
M17:54:19/honda/1327/339912/презервативы с шипами
G17:54:27/honda/147/44629/англосивик
YA17:55:41/vw/3275/1251730/субароводы
YA17:55:48/model/4394/2262562/не подключаетс€ айфон к айтюнсу
G17:55:58/model/3625/1888329/заумные высказывани€
M17:56:12/honda/1086/294602/дрочка ру
YA17:56:31/model/4632/2382093/Ћекции по животноводству
YA17:56:42/golflab/124/27431/при переходе на нейтраль глохнет
G17:56:51/model/1958/1021447/песенка јнгел хранитель мой
G17:57:14/model/3231/1670577/легкий нотебук
M17:57:23/honda/650/194339/www dom2 ru
YA17:57:32/model/501/антон волков танго
YA17:57:44/golflab/136/29362/ауди а100 стоимость
R17:58:28/golf-stream/28/4296/двигатель ј≈≈
G17:58:32/model/4918/2527415/что такое метр погоный
G17:58:34/honda/264/84061/дабл€
YA17:58:40/16v/9/997/k-jetronik
YA17:59:02/vw/2527/964544/–азв€зка на ул.Ќародного ќполчени€ и пр. маршала ∆укова
G18:00:06/honda/347/108856/шоколадна€ колбоса
AB18:00:12/golf-stream/10/1778/керхер
YA18:00:38/model/1306/686238/€ арм€нка
YA18:01:17/vw-club/20/1705/«астучал двигатель
YA18:01:36/vw/135/53371/польские ругательства
YA18:01:39/boards/16v
M18:01:50/model/1502/786090/клафилин
G18:02:02/vw/833/288857/что пидафил
YA18:02:20/vw/3231/1236047/у мен€ температура кашл€ю
G18:02:29/model/4246/2192383/Life Works
YA18:03:00/model/797/437531/ расива€ речь дл€ ужина
M18:03:58/model/1763/919870/ вебкамеры в примерочной
G18:03:58/model/713/394247/Ѕандарчук
G18:04:09/vw/1846/681041/что такое стринги
YA18:05:10/vw/3020/1155067/наговариваете вы на нашу семью, грех это!
YA18:05:25/ps/5/799/номера форсунок на опель
YA18:05:43/nissan/21/6993/рацаца
YA18:06:54/vw/3058/1170450/рыбалка 2 верси€ 1.1.1
G18:06:59/model/427/244261/grubi.ru
YA18:07:00/16v/2/78/ќ’Ћј∆ƒјёўяя ∆»ƒ ќ—“№ ƒ¬»√ј“≈Ћя
G18:07:17/vw/797/276798/онфе
YA18:07:34/model/2236/1149303/посоветуйте интересную художественную книжку
G18:07:40/model/428/244762/grubi.ru
YA18:08:24/honda/168/51851/хочу драчить
M18:08:27/honda/1007/278283/хорошие и недорогие очки
YA18:08:31/model/1091/582516/пелотки крупно
YA18:09:42/honda/1042/286365/ѕодрочить по телефону
G18:09:54/golf-stream/23/3724/схема рейки
YA18:10:00/vw/3058/1170450/рыбалка 2 верси€ 1.1.1 скочать
G18:10:19/model/5587/2875769/ботинки прощай молодость
G18:10:26/kurilka/29/10403/отвечать очко
G18:10:51/vw-club/46/3797/купить антифриз G12+
G18:11:01/model/3254/1682609/лидер-приветствие
M18:12:09/model/4171/2155561/секси в калготках
G18:12:28/model/965/524351/ризидент
YA18:12:39/model/1763/919870/вебкамеры в примерочной
G18:12:45/vw/3337/1271877/сиквел оракл
YA18:13:11/vw/135/53371/польские ругательства
YA18:13:19/golf-stream/12/2001/классные ники
R18:13:35/16v/2/115/ купить Passat
R18:13:40/vw/104/мэрлин мэйсон
G18:13:59/vw/386/139680/ћассат
G18:14:15/model/1264/663690/хороша€ характеристика
YA18:14:29/renault/51/13949/зоофели€
YA18:14:43/vw/2866/1098274/всегда найдетс€ падла
G18:14:43/vw/386/139680/ћассат
YA18:14:54/vw/2764/1059128/спайси соус
G18:14:55/vw/386/139680/ћассат
G18:15:03/vw/386/139680/ћассат
G18:15:10/vw/386/139680/ћассат
G18:15:16/vw/386/139680/ћассат
G18:15:27/vw/386/139680/ћассат
G18:15:55/model/461/262198/муссонит
YA18:16:01/model/688/382407/списки ликвидаторов на чаэс
G18:16:25/vw/477/166945/матершинные стишки
YA18:16:35/model/1359/713225/√»Ќ»“јЋ»»
YA18:16:43/model/4052/2099374/”волен на хуй
YA18:17:29/model/2913/1500339/–ингтоны дл€ солидных
G18:18:03/vw/1688/621341/ракета из селитры
G18:18:30/kurilka/94/40715/эрих кестнер двойна€ лоттхен краткое содержание
G18:18:47/vw/2796/1072354/kalyos
YA18:19:32/photo/20/6152/никон д40
R18:19:38/honda/983/272189/мэрлин мэйсон
N18:19:41/model/3335/1725944/на что клюют телки
G18:19:46/model/3008/1548464/линда фолит
YA18:19:56/vw/3892/1449076офисный планктон
YA18:20:25/honda/1324/339567/ебланчег
YA18:21:05/kurilka/28/9376/собачьи сиськи
M18:21:13/model/2455/1258293/гембала
G18:21:59/model/4959/2548242/–Ъ—В–Њ —В–∞–Ї–Є–µ " –Љ–µ—Й–∞–љ–Є"?
YA18:22:17/model/5664/2916181/шиномонтаж улофа пальме
YA18:22:23/vw/3308/1262903/www.pspx.ru
YA18:22:28/model/4649/2391707/ссылка мобайл де
G18:23:19/vw/237/91185/towel.blinkenlights.nl
G18:23:32/model/4665/2401291/adidasкуртка
YA18:24:16/honda/1311/337336/новафилм.тв
G18:24:29/model/5664/2915813/придворова€ территори€
G18:25:41/vw/2064/772823/каша пшенно-рисова€
YA18:25:55/kurilka/255/116894/все о крайслер 300—
YA18:26:51/model/1473/772061/матацыклы
YA18:27:50/model/3847/1997444/телки таганрог
M18:28:40/model/3672/1911708/аднакласники
YA18:29:06/vw/3309/1263167/порно с лошатью
G18:29:28/vw/2645/1015080/боклажан
N18:29:36/nissan/6/1491/педофил
G18:29:45/model/5514/2835435/калининградские бмв
YA18:30:10/golfclub/78/«ƒ“ на VAGовском суппорте
YA18:30:12/honda/56/17749/заебон
G18:30:14/honda/1347/344320/"отрицательный irr"
YA18:30:19/model/3124/1610930/valera parlux
G18:30:27/model/1413/742428/жещина трахаица с
G18:30:31/honda/1347/344320/"отрицательный irr"
G18:30:37/honda/1347/344320/"отрицательный irr"
G18:30:43/honda/1347/344320/"отрицательный irr"
G18:30:50/honda/1347/344320/"отрицательный irr"
G18:31:12/model/1413/742428/жещина трахаица с
YA18:31:16/model/2294/1177074прощай от всех вокзалов поезда mp3
G18:32:10/model/1413/742428/жещина трахаица с
YA18:32:20/honda/1221/320338/досуг.ню
G18:32:39/model/5275/2707077/спермограма
G18:32:50/model/4960/2548674/фенолфтолеин
YA18:32:53/model/1255/658696/телки таганрог
YA18:32:58/model/1255/658696/телки таганрог
G18:33:22/vw/577/194968/теклки
YA18:33:26/kurilka/117/51530/телки таганрог
G18:34:15/model/3771/1959996/целлюлитна€ задница
M18:34:49/renault/23/6200/сказка колобок на новый лад
G18:35:07/model/2970/1529457/кто поЄт "¬о€ж,во€ж"-оригинал
R18:35:12/16v/5/369/описание ABF
YA18:35:18/honda/249/79298/—исечки
G18:35:33/model/4844/2489606/ѕлейстейшин 2
YA18:35:42/model/3810/1978960/телки таганрог
M18:36:03/vwagainst/49/15173/коробка 02A CRU
G18:36:11/vw/2621/1005324/дет морос
YA18:36:41/auspuff/7/890/паук vr6
G18:36:52/model/4320/2227303/Ѕольша€ —пасска€ 37
G18:37:01/model/3361/1742316/ха прекинь да
YA18:37:28/vw/1285/455878/цэлки
YA18:38:44/honda/433/135525/манеты 2001
YA18:38:49/model/1655/862429/волосатые голые девки
M18:39:16/vw/3728/1398123/ оператор 8 901
YA18:40:25/model/1948/норвежские поговорки
YA18:40:29/honda/1331/340680/мокрощелки малолетние
G18:40:47/honda/1463/363211/пиздец все близитс€ а кризиса
M18:41:12/vw-club/39/3235/вискомуфта
YA18:41:16/vw/588/198372/смысл наклона заднего стекла
YA18:41:36/golflab/115/25739/установка распредвалов на зуб вперед
G18:42:46/model/1021/551728/—апи–ави
YA18:43:00/model/3634/1892597/как прочитать чужие смс бесплатно
G18:43:06/vw/3863/1439312/лицензи€ на аваст
YA18:43:14/model/2149/1108352/€ичники обезьны
G18:43:42/vw/1986/741115/зпел
YA18:43:43/model/2461/1261720/“Єтки голые
YA18:44:02/model/1948/норвежские поговорки
G18:44:02/vw/1986/741115/зпел
G18:44:55/model/4597/2361953/как солить форель
YA18:45:04/photo/23/6872/фильтр виньетирование
G18:45:19/model/2394/1227888/—јѕ говно
G18:45:22/vw/1547/563681/дум дуру рум
G18:45:29/model/1579/826972/экшуали
G18:45:45/model/64/38692/гр€зь Ѕелоруссии
YA18:45:48/honda/153/46394/mp3 бесплатно скачать без регистрации мелодию без слов ј снег идЄт √люкоза
YA18:46:01/honda/153/46394/mp3 бесплатно скачать без регистрации мелодию без слов ј снег идЄт √люкоза
YA18:46:05/honda/153/46394/mp3 бесплатно скачать без регистрации мелодию без слов ј снег идЄт √люкоза
YA18:46:10/golflab/124/27404/гольф 2 форум печка
G18:46:33/model/4592/2358882/аникдоти
YA18:47:03/vw-club/14/1065/автосервис в ћитино
G18:47:48/model/3679/1915777/тест на айкью
YA18:48:22/model/1099/586494/бережоного
M18:48:50/vw/2505/955377/калоидное серебро
G18:49:00/model/4627/2379203/картинка √авно
YA18:49:21/model/1827/954284/красива€ молодуха
YA18:49:41/model/1053/564962/lovemail.ru
G18:49:45/honda/588/179445/срок действи€ врем€нки
YA18:51:54/kurilka/132/59665/удалить следы ручки
YA18:52:06/vw/3355/1278065/каток измайлово
YA18:52:07/boards/16v
G18:52:48/listchannel/10как установить приложение скачанное с istore в ipod touch
YA18:53:25/model/2375/1218498/а € ушаночку поглубже нат€ну
YA18:53:30/model/1363/715286/сэкс и сиськи
G18:54:09/honda/1219/319775/трактарист
G18:54:24/vw/2688/1030234/самсунг вью
YA18:54:49/kurilka/100/43570/у алкоголика красный нос
G18:54:59/vw/1123/393692/www.izvrukvruki.ru
G18:55:01/vw/1123/393692/www.izvrukvruki.ru
YA18:55:02/model/2254/1158222/режь хачей!
YA18:55:50/model/4283/2209786/пизда-ебать
G18:56:16/rally-club/2/113/каркас безопасности дл€ ралли
YA18:57:28/vwagainst/47/14697/секвентальную  ѕѕ
G18:57:45/honda/375/118239/автоковрик.ру
YA18:58:16/nissan/16/5323/ноздр€ смешна€
G18:58:24/model/4869/2502257/√ор€ча€ жвательна€ резинка
G18:58:39/vw/2164/813619/рецессивный признак
YA18:58:43/vw/3623/1367216/кордиант
YA18:58:50/model/3347/1733982/стара€ модэль форд
YA18:59:03/model/3873/2010447/сониэриксон 810
G18:59:09/golflab/63/14083/ без гидрокомпенсаторов
YA18:59:29/honda/176/55133/порно с немцами
AB18:59:58/model/2482/1272473/клитер
G18:59:59/model/5450/2801151/ранфлет
G19:00:07/model/3186/1646251/∆енщена
YA19:00:25/auspuff/26/3098/плам€гаситель дл€ ауди
R19:00:41/vw/2074/776479ай, ћоська знать она сильна коль лает на слона
YA19:00:51/vw-club/38/3188/ѕроблемы с моно-впрыском
YA19:01:24/vw-club/4/259/схема электрооборудовани€ гольф 2
G19:01:38/model/5091/2615201/пиписки
G19:01:41/model/5023/2581620/if you wanna try and save me then take my heart
YA19:01:45/model/5255/порно лудчшее
G19:01:51/vw/3555/1344778/себариты
YA19:02:06/vw/2914/1115803/–Я–Њ—З–µ–Љ—Г –љ–µ —А–∞–±–Њ—В–∞–µ—В –Љ–Є–Ї—А–Њ—Д–Њ–љ?
YA19:02:59/auspuff/4/записи со звуком спортивных выхлопов
YA19:03:03/model/1053/564962/Lovemail.ru
G19:03:05/model/207/122435/www.teen16.com
YA19:03:09/vw/2914/1115803/–Я–Њ—З–µ–Љ—Г –љ–µ —А–∞–±–Њ—В–∞–µ—В –Љ–Є–Ї—А–Њ—Д–Њ–љ?
YA19:03:15/model/5512/2834156/амексин
G19:04:26/honda/494/154357/пеньар
G19:04:41/model/1150/611289/кашилЄк
G19:04:58/model/1546/809388/кашилЄк
YA19:05:12/model/3879/2013482/фотомодели на стуле
YA19:05:17/model/4164/2151874/фильмы про накурку
G19:05:29/vw/2983/1140954/карта москвы со светофорами
YA19:05:36/model/2594/1330895/супер девачки
YA19:05:41/model/3133/1615592/значит хорошие сапоги
G19:05:41/model/2227/1145478/кондиуионер
G19:05:53/honda/539/167115/купить оквареум
YA19:06:22/honda/562/173156/разворот в ограниченном пространстве
YA19:06:24/model/3598/1874637/гей ч€ты
YA19:06:31/vw-club/46/3795/реквизиты гибдд как заполнить бланк
G19:06:41/vw/1973/735246/заплутали мишки
R19:06:42/vw/552/ как сн€ть машину из розыска интерпола
M19:07:17/vwagainst/45/14068/јфтоэкзотика
YA19:07:24/vw/1801/663748/трахнул училку
G19:07:25/model/3094/1594537/Ѕордель —ущевка
YA19:07:38/kurilka/124/55433/большие сиски
G19:07:46/model/3094/1594537/Ѕордель —ущевка
G19:07:57/model/1302/683882/ризина TOYO
YA19:08:08/vw/3123/1197620/вазелин норка
M19:08:15/vw/740/255382/как убрать запах водки
YA19:08:16/model/4112/2127663/надолго в гипсе
G19:08:36/model/78/46641/пасматреть игры
R19:08:48/honda/148/44915/выжигатель по дереву
M19:09:03/renault/49/13368/лезбианки
YA19:09:08/model/607/340812/»во Ѕобул
G19:09:12/model/1049/563381/легкообижающийс€
G19:09:53/model/4897/2517494/–озали€ Ћомбардо
G19:10:00/vw/9/3346/бактерин
YA19:10:01/model/5512/2834156/амексин
YA19:10:16/honda/597/181605/голые девачки
YA19:10:25/honda/154/46674/сперматазоит
G19:10:50/vw/3656/1377102/быть собранным
M19:10:59/model/3540/1844328/pogoda v moskve
G19:11:13/vw/1547/563681/дум дуру рум
YA19:11:29/model/3147/1623865/нет молотов финска€ песн€
G19:11:34/vw/1547/563681/рум дум дум
G19:11:42/honda/632/189937/ебаный качкач
YA19:11:59/honda/249/79298/сисечки
YA19:12:16/vw/3728/1398123/8 901кто оператор
G19:12:44/model/3572/1860998/»цхак  ацнельсон,
YA19:12:49/model/3147/1623865/нет молотов финска€ песн€
YA19:13:29/model/2413/1237654/ворчестерский соус
YA19:14:56/kurilka/190/86706/голышом на пл€же
G19:14:57/model/4122/2132019/«рение и позвоночник
YA19:15:24/vw/1881/696529/www.free-av.com
G19:15:25/honda/196/62236/вд40
YA19:15:59/model/1737/905822/рецепт водки хреновки
R19:15:59/honda/283/90049/?all=nутренн€€ гимнастика упражнени€
G19:16:00/vw/202/78477/разморозка замков
YA19:16:18/honda/27/7730/пирацка€ копи€
YA19:16:46/model/1115/594436/рецепт водки хреновки
YA19:16:59/vw-club/38/3185/golf 3
G19:17:21/vw/1317/467399/¬зрывоопасность газа
YA19:17:57/model/3287/1699957/пеньси€
G19:18:19/model/152/92207/как крутить п€таки
G19:20:28/model/3829/1989523/”ровни общени€
G19:20:34/honda/804/230563/аккумул€тор NOVA
YA19:20:53/model/31/18658/какие бывают джакузи
YA19:20:54/model/1889/987009/квартиры по госцене
G19:21:36/model/4461/2293605/авик матрица
G19:22:49/model/4181/2159887/а к одинадцати туз
YA19:23:11/honda/532/165189/бобрик кто это
M19:23:34/model/5762/2966419/биографи€ ширзингер
G19:23:36/model/2282/1171594/сисьси
G19:23:54/golf-stream/24/3797/pierburg 2E2
M19:25:07/renault/66/17061/падрочим
YA19:25:09/honda/1189/314561/keep4
R19:25:16/honda/645/193286семейные фото с пл€жей
M19:25:17/model/1555/814127/падрочим
G19:25:39/vw/1388/497603/"сказали что зарплаты не будет"
YA19:26:01/model/2149/1108530/—уперчардж
G19:26:17/vw/98/40034/зажигалка турбина
YA19:27:05/vw/1847/681378/лав радио
YA19:27:16/vw/2923/1119188/секреиарша
G19:27:31/model/4898/2518398/теорема гЄдел€
G19:28:04/vw/1092/382655/“унинг машын
G19:29:41/model/5553/2857582/навигатор —итигайд
YA19:30:00/golflab/63/схема заднего дворника на golf2
YA19:30:03/megasquirt/megasquirt
G19:30:09/vw/1024/360130/proma wheels
YA19:30:14/megasquirt/megasquirt
M19:30:15/model/854/467141/чпокнуть
G19:30:23/model/4259/2199127/эрмес фарфор
G19:30:30/model/1075/575550/вотсап
YA19:30:32/honda/540/167432/если права поддельные
M19:30:59/model/3672/1911708/аднакласники
YA19:31:12/model/1737/905609/неприличные животные фото
YA19:31:21/vw-club/46/3795/реквизиты гибдд
G19:31:30/honda/34/9746/что означает Ќикроман
YA19:32:14/vw-club/4/214/схема фольксваген гольф 3
YA19:32:25/model/2955/1522429/порочные тЄлки
YA19:33:00/model/1297/681019/протащить через таможню
YA19:33:04/vwagainst/30/9204/приемы в автоспорте
YA19:33:10/model/2307/1183343/нигрит€нки
R19:33:12/honda/550/170016/песн€ там там да дабуди
M19:33:45/model/2924/1506719/фереророше
YA19:33:52/model/2021/1049472/Ѕабочке снитс€ сон что она „жуанцзы. ому снитс€ сон:бабочке что она „жуанцзы или „жуанцзы что она бабочка
YA19:34:08/golflab/128/28038/vfckjjnltkbntkm yf BMW
YA19:34:35/vw/3018/1153973/попы в стрингах
G19:34:54/vw/477/166945/матершинные стишки
G19:35:16/vw/1691/622678/где в ћоскве можно отправить факс
M19:35:28/honda/1331/340821/картинки с цветочками
YA19:35:58/vw/2923/1119115/что обозначает им€ владислав
YA19:36:23/nissan/12/3739/ѕламбир.ru
YA19:36:28/nissan/12/3739/ѕламбир.ru
G19:36:57/model/3118/1607737/наценка 500%
YA19:37:09/vwagainst/21/6521/bestpaul
YA19:37:20/model/3540/1844613/комп дл€ блондинок
M19:37:29/vw/2828/1083762/останкенска€ башн€
G19:37:57/model/5738/2954554/ебануца
G19:38:17/model/4000/2074615/кaсарь -  ак сука
YA19:38:23/model/4217/2178875/ублютки
G19:39:05/model/3523/1835021/Єбнись
G19:39:24/golflab/16/2545/размер колеи
M19:39:54/golflab/36/6923/гольфлаб
YA19:40:17/honda/586/178842/активные духовные практики
YA19:41:36/model/801/439789/штож ты страшна€ така€
YA19:41:45/model/2442/1251922/небанальные подарки
G19:42:46/model/2326/1192663/назырь
YA19:43:14/model/4546/2334538/www.torrents.ru скачать
YA19:43:22/honda/1213/318279/¬ам поступило ћћ— сообщение
YA19:43:29/model/1053/564962/Lovemail.ru
G19:44:20/model/3964/2057288/гагага
YA19:45:57/honda/1081/293775/пиздища
G19:45:58/model/5288/2713769/гольф глори€ серенити
M19:46:02/model/4521/2320637/сиськи сиськи и только сиськи
G19:46:17/vw/3328/1268848/малалетка
G19:46:38/model/2180/1122924/каму ты нахуй нужен
YA19:46:50/model/2464/1263316/ опрофаги€ выдача
M19:47:08/honda/578/176785/открытки новогодние-стенгазеты
YA19:47:56/model/31/18654/гидромассажные коврики в ванну
YA19:47:59/model/4099/2121307/черепашки ниндз€-костюм
R19:48:25/vw/904/318022/как сшить купальник
YA19:49:01/model/1294/679529/facesitting
G19:49:04/honda/692/205440/Ѕитолз
G19:49:57/model/5222/2679843/пионэры идите в жопу
G19:50:04/model/2797/1437894/ ак прицепл€ть цепочку к джинсам
YA19:51:20/golf-stream/12/2001/?all=n Ћј——Ќџ… Ќ» 
G19:51:48/golflab/73/16480/свечи бош
YA19:53:40/model/2925/1507053/ахуенные ники в игру
YA19:53:40/honda/1053/288416/колчер бит
G19:53:42/model/3820/1984751/«аправлены в планшеты караоке
G19:53:45/vw/369/134356/великий гонзо
G19:54:03/vw/237/90987/выпороли
G19:54:05/model/5326/2734344/’уетень
YA19:54:45/vw/1135/398387/мультик а € солнышко нашел
YA19:55:08/kurilka/66/28204/ ключ к invader
N19:55:23/honda/428/133755/мадели машин
YA19:55:54/honda/180/56697/ога-это
YA19:56:52/model/4111/2127060/гейклуб
M19:57:26/model/2183/продам щенка в харошие руки таксу
G19:57:34/vw/3106/1190483/—Б–Љ–∞–є–ї *how_lovely?*
YA19:57:58/clio/login/club clio
G19:58:00/model/4683/2410161/новобатюнинска€
YA19:58:05/model/3672/1911708/аднакласники.ru
G19:58:45/kurilka/265/121706/фистинк
M19:59:03/honda/1301/335714/шрамы на сиськах
YA19:59:06/vw/2923/1119115/толкование имени влад
YA19:59:23/vst/3/528/горнолыжный рынок на “ульской
YA19:59:25/honda/120/37444/жопа на весь экран
YA19:59:49/honda/597/181605/голые девачки
G19:59:56/vw/369/134356/великий гонзо
YA20:00:40/vw-club/46/3795/реквизиты гибдд как заполнить бланк
YA20:00:53/model/3102/1598311/фрукт памела
G20:01:14/vw/1225/433003/ѕесенка телепузиков
G20:01:15/vw/3122/1197310/гольфы фото
YA20:01:36/golflab/80/18463/термостат topran
G20:02:02/kurilka/94/40715/ раткое содержание √. √расс - "ѕод местным наркозом"
G20:02:10/model/1070/572828/камшоты
M20:02:20/model/2464/1263316/www intimcity ru persons
G20:03:23/model/3094/1594295/ударенные автомобили
YA20:03:25/model/4116/2129393/макбук 13"
YA20:03:28/vw/2951/1129920/правильна€ порка жены выпороть жену
M20:04:10/vw-club/5/336/двигатель AKL
G20:04:19/model/32/19667/я тащщусь
YA20:04:26/vst/3/527/горнолыжный рынок на “ульской
YA20:05:00/golflab/56/цена пусковой форсунки дл€ гольфа-2 с моновпрыском
G20:05:06/model/5541/2851103/я тащщусь
YA20:05:11/model/4146/2143700/йодова€ сетка
G20:05:21/model/5541/2851103/я тащщусь
G20:05:23/vw/1357/484780/кукуево
YA20:05:43/honda/412/128727/республика шкит
YA20:05:59/model/1786/шлем дл€ снегахода
G20:06:09/model/2372/1216587/гиданизм
G20:07:42/model/5581/2872483/кукуево
G20:07:56/vw/1537/559983/’арактеристики тока
YA20:07:57/auspuff/28/3300/глушитель на 124 купить
M20:08:21/golflab/106/24081/двигатель AKL
G20:09:51/vw/332/122665/поверхность-это
G20:10:34/model/5050/2594646/виктимное поведение
G20:11:10/vw/287/107706/свитчь
G20:12:10/model/4173/2156456/пример телефонограммы
YA20:12:18/honda/690/205175/хорошее качественное порево
G20:12:38/vw/369/134356/великий гонзо
G20:12:53/model/1995/1037456/мурчилаго
YA20:14:46/honda/153/46394/скачать бесплатную минусовку Bring me to life
G20:14:52/model/5333/2738632/интеллигентный чат
G20:15:58/model/3873/2010828/поиградь игру
G20:16:13/model/245/145482/склерос
YA20:16:26/model/3820/1984747/в красных трусел€х и манишь
YA20:16:26/model/1887/986061/буккафе
M20:16:41/vw/2923/1119115/„то обозначает им€ ¬лад
YA20:17:14/vw/1612/Volkswagen Golf –Љ–Њ–љ–Њ–≤–њ—А—Л—Б–Ї –Ј–∞–≤–Њ–і–Є—В—М—Б—П —Б 7-10 —А–∞–Ј–∞ –≤ —З–µ–Љ –њ—А–Є—З–Є–љ–∞?
G20:17:16/model/4196/2167140/—амы в одноклассниках
G20:17:22/model/1369/718026/ѕисьмецо от внука получил федот
M20:17:29/model/2046/1060263/форд мандеу
YA20:17:51/vw/3640/1372710/вокруг одни долбоЄбы
YA20:17:56/model/2996/1542062/Supertremp
G20:18:14/vw/477/166945/смешные матершинные стишки
AB20:18:43/honda/228/72972/www.zaycev.net
YA20:18:57/model/1329/698409/"слепили бабу на морозе руки ноги голова"
G20:19:15/vw/344/125895/пошал
YA20:19:36/honda/43/12915/митафора
M20:20:07/honda/153/46394/—качать матч 2.1.4 на игру street legal racing
R20:20:08/vw-club/13/988/ арбюратор 2≈≈
YA20:20:15/vw-club/21/1810/http//www.vw-club.ru/vw/vin/
G20:20:15/vw/1900/704546/ванеша
G20:20:37/megasquirt/ћegaSquirt 2 v3.0
YA20:20:39/model/2610/1339864/http//www.vw-club.ru/vw/vin/
G20:21:08/vw/919/323959/адзынь
G20:21:27/model/5634/2899307/супруги российского министра журналу Ђ–аботницаї
G20:21:38/vw/2820/1080969/адзынь
YA20:21:58/vw/3308/1262903/www.pspx.ru
YA20:23:37/vw/402/145604/чем оттереть акриловую краску
G20:24:00/model/4662/2399190/жпт
YA20:24:21/vw/1263/447867/гнилой зад
G20:24:33/rally-club/2/132/xu9j4
G20:24:48/vw/3756/1406275/залошили
N20:25:40/model/2008/1044022/сэкс машины
YA20:26:12/vw/645/218695/уволитьс€ отработать две недели календарные или рабочие
G20:26:57/golf-stream/37/5546/передаточные числа
G20:27:00/model/3223/1666493/самагоноварение
YA20:28:11/kurilka/126/56547/ De Puta Madre-перевод
YA20:28:23/model/2418/1239683/кто поет зеленоглазое такси
YA20:28:55/model/4106/2124982/бо концепт
G20:31:27/honda/131/40060/WWW.MULTFILM
G20:31:28/honda/131/40060/WWW.MULTFILM
G20:32:37/model/230/135573/игры учител€
YA20:33:17/golflab/115/25806/golf kr
G20:33:26/model/5265/2701705/карты гармин торрент
YA20:33:38/model/4611/2370116/ирина феррари
YA20:33:55/model/4204/2172117/заставки на радио ма€к
YA20:34:18/model/3619/1885417/диссертаци€ по девиантному поведению
G20:34:21/vw/769/266216/ролик поебень
YA20:34:44/koleso/2/139/шины кама r13 б\у
G20:34:56/test/9/1261/€ лох((
G20:35:07/model/4350/2241114/"The Hands Resist Him" картина
YA20:35:33/vw-club/28/2379/¬ыход картерных газов GOLF-4
YA20:35:39/renault/27/7267/“аджикский девки
YA20:35:48/model/4308/2220885/фен-наркотик
YA20:35:51/model/4308/2220885/фен-наркотик
YA20:36:22/model/4308/2220885/фен-наркотик
YA20:36:24/honda/1436/аторрент
G20:37:01/model/2797/1437894/футболки с символикой Ѕћ¬
YA20:37:07/16v/6/411/авто.ру профильной конференции
YA20:37:19/nissan/19/6085/картинку больших писек
YA20:37:33/model/4634/2383229/ћ”– ∆ќѕј
M20:37:36/model/5521/2839138/если пучит живот
YA20:37:49/vw-club/28/2379/¬ыход картерных газов GOLF-4
YA20:38:03/vw-club/28/2379/¬ыход картерных газов GOLF-4
YA20:38:32/golflab/133/29004/ћоновпрыск вместо карбюратора
YA20:38:33/photo/11/3353/nfvhjy 18-50
M20:38:39/model/4144/2142290/ѕесно про Ќовый год
G20:38:47/model/1036/1476334/21111111111111111111111111111111
YA20:38:52/vw-club/28/2379/¬ыход картерных газов GOLF-4
YA20:39:54/vw-club/46/3795/реквизиты гибдд как заполнить бланк
G20:40:04/model/4569/2347157/каждый народ имеет ту власть, на которую заслуживает
YA20:40:10/vw-club/28/2379/¬ыход картерных газов GOLF-4
YA20:40:49/vw-club/28/2379/¬ыход картерных газов GOLF-4
G20:40:53/model/4715/2425302/лемурийцы
G20:40:53/vw/3730/1398582/портрет энштейна
YA20:41:02/auspuff/12/1500/паук 4-1 купить
M20:41:44/model/2593/1330466/ушЄл муж к молодой
M20:41:54/honda/1103/297633/пропки в москве
G20:42:06/vw/3638/1372102/–Ч–µ–ї√Ђ–љ—Л–є –њ–∞–њ—Г–≥–∞–є
G20:42:17/model/5133/2634198/gluhar
YA20:42:34/model/728/401671/как худела началова
G20:42:43/vw/2380/905987/адамово €блоко от ревматизма
G20:42:45/model/781/429252/—олощанский ќлег ћоисеевич
G20:42:56/golflab/52/11446/отдам машину
YA20:43:23/ps/1/187/ru tabe.ru
G20:43:30/model/1914/999958/лимон вырастить
YA20:43:36/vw-club/22/1887/расход топлива на Passat B3
YA20:44:08/renault/17/4704/про девок
G20:45:33/vw/746/257526/—иволк
YA20:46:38/model/4826/Ѕиаграфи€ ћаксима “анка
G20:46:50/model/2492/1278001/клоунеса
YA20:47:03/model/3542/1845364/джессика джей
YA20:47:16/model/2412/1236460/карманный тетрис
G20:47:28/model/1266/664816/копидженерал
G20:47:28/model/1266/664816/копидженерал
G20:47:28/model/1266/664816/копидженерал
G20:47:58/model/4010/2078893/ченахи
YA20:48:07/model/2996/1542039/оцило
YA20:48:26/vw/216/84044/комок.com
G20:48:37/vw/3873/1442755/ноки€5800
YA20:49:14/golflab/82/18839/отопитель гольф-2
G20:49:52/model/3795/1971599/п€лил маму
M20:49:58/model/4164/2151747/авики зимние
G20:50:01/model/3744/1947027/ubejishe
YA20:50:20/photo/21/6273/“ипи телепередач
YA20:50:29/photo/21/6273/“ипи телепередач
G20:50:35/model/2857/1470930/чеширский терьер
G20:51:33/vw/2507/956243/коламби€ пуховики
G20:52:01/honda/631/189543/гисметио
G20:52:21/vw/2507/956243/коламби€ пуховики
G20:52:35/honda/631/189543/гисметио
YA20:53:10/golf-stream/34/замена термостата на VW VENTO
G20:53:26/model/1908/996925/мебиль
G20:53:53/model/4660/2398318/сохо румз
M20:54:03/renault/25/6879/как убить препода
G20:54:55/vw/266/100563/в/ч 06709 ћулино.
YA20:55:11/photo/22/6535/ и уносит мен€ песн€
YA20:55:29/photo/22/6535/ и уносит мен€ песн€
G20:56:52/model/3307/1711015/кинонавинки
YA20:57:45/auspuff/26/3136/ двигатель парамотора
YA20:57:55/model/817/447352/подшыпники
G20:58:08/model/2628/1350167/marossia автомобили
G20:58:26/model/4665/2401212/что носили в 80-е
YA20:59:17/vw/3008/1150469/пакеты от интим салона
YA21:00:48/vw/3672/1382470/УEl conocimiento es una condenaФ
G21:00:48/model/3702/1927616/как себ€ дисциплинировать
G21:00:54/model/3702/1927616/как себ€ дисциплинировать
YA21:00:55/golflab/131/28644/кпп на гольф
G21:00:58/vw/3250/1242811/сколько раз можно передовер€ть
G21:00:58/model/2942/1516123/ —еверсталь - ѕросрали все полимеры
YA21:01:10/vw-club/44/3648/ KKL-USB санкт петербург
YA21:01:22/golflab/128/28172/кпп на гольф
G21:01:52/model/4643/2387826/владимирский централ лирика
YA21:01:52/golflab/128/28172/кпп на гольф
YA21:02:36/model/1252/657142/телочки дл€ мен€
YA21:02:48/model/2396/1229191/медкомиссию на –асковой
YA21:03:12/model/2681/1380753/dont you wasting your emotion
G21:03:34/model/5045/2591808/лежать звездочкой
YA21:03:38/vw/3273/1251168/ выходить в инет с ноутбука через wifi
YA21:03:40/model/3358/1740297/www.skyp.com
G21:04:08/vw/174/68818/две аськи одновременно
YA21:04:22/renault/74/18421/деффки
YA21:04:28/model/3872/2010292/пити крузер
YA21:04:39/honda/1223/320778/“ёЌ»Ќ√ќ¬јЌЌџ≈ ∆»√”Ћ»
M21:05:05/model/2599/1333466/сабака алабай
YA21:06:14/kurilka/162/73133/быстро протрезветь
YA21:06:33/vw/3018/1153973/попы в стрингах
YA21:06:33/honda/153/46394/www.педофил.ru
AP21:06:34/model/4190/2164530/русский изврат
YA21:06:56/model/1544/808721/сектанты адвентисты
M21:07:10/vw/2914/1115803/почему не работает микрофон
YA21:08:25/model/2465/1264005/ярополк —в€тославович
G21:08:42/model/4880/2508232/поговорка про бисер
G21:08:47/honda/1216/318875/ксинон
G21:09:40/model/4944/2541516/пиздатый город ѕодольск
YA21:09:41/honda/879/247121корейский фильм дуэль
G21:09:48/model/5120/2628981/зар€ граната
YA21:10:01/auspuff/6/спортивный глушитель на нексию
YA21:10:12/auspuff/13/1525/gt-t
YA21:11:39/vw/3282/www.мобильныэ игры.ru
G21:11:53/model/3564/1856851/дрочиво
G21:11:57/model/2982/1535937/блэк ай пис
YA21:12:22/model/786/432393/плохо сворачиваетс€ кровь чем это грозит
YA21:12:43/vw/567/191288/автожирные страницы
R21:13:15/vw/1539/560574/скажи-ка д€д€ ведь не даром
G21:13:22/model/4235/2187473/клаввиатура
G21:14:19/model/3749/1949155/ƒимон ахуел
G21:15:03/vw/1434/516849/прикольные погон€ла
R21:15:30/vw/1825/"рыба в йогурте" рецепт
G21:16:41/model/338/198660/узбикистан
YA21:16:49/model/4182/2160642/?all=nwww.hospitalityclub.org
G21:16:57/model/1556/814771/узбикистан
YA21:17:30/vw-club/44/3664/авто фестиваль
G21:17:50/model/4173/2156413/тамарилла
G21:18:15/model/2920/1504232/калашников-гавно
YA21:18:21/model/1829/955565/www.Piratesxxx.com
YA21:18:28/model/1755/915326/краска дл€ сосков
M21:18:33/vw/1116/391318/ѕавелецкий вакзал
M21:18:40/kurilka/132/59618/как дышат раки
YA21:19:02/vw/2010/750883/–ено18
G21:19:53/model/5423/2788060/пьюща€ мать горе в семье
YA21:19:55/model/1829/955565/www.Piratesxxx.com
G21:19:58/model/301/179273/ј“¬≈“џ Ќј ¬јѕ–ќ—џ
G21:20:01/vw/235/90686/витамин радости
G21:20:15/megasquirt/2/555/мегаскирт
G21:20:21/vw/2061/771895/пелотка небрита€
G21:20:42/model/3748/1948548/ч€сы
YA21:21:05/honda/1333/341204/жевотные собаки
G21:21:39/vw/1416/509303/белый парик
YA21:21:58/model/2918/1503051/и € кричу остановите пленку
G21:22:39/model/1531/802522/советцкое порно
R21:22:42/model/6/3366/кризис стихи
M21:23:08/model/1655/862429/голые красивые девки
YA21:23:11/honda/1127/302236/плетси фракталы
G21:23:19/model/3345/1733234/тойота преви€ куплю
G21:23:56/vw/1007/354015/охват-это
YA21:24:09/vw/2125/797479/булочна€ или булошна€
G21:24:14/vw/1137/399182/аккселерометр
G21:24:23/vw/2945/1127723/ѕјЎќЋЌј’”…
G21:24:48/vw/655/222472/бараньи €йца
M21:24:59/model/3459/1799801ЎЋя√»–
YA21:25:02/golf-stream/12/2001/классные ники
YA21:25:47/renault/27/7419/фотки пелоток
M21:25:49/honda/636/кино наслецтво
YA21:25:54/model/2067/1069620/—ломанный мизинец на ноге
G21:25:58/model/3245/1677425/ламбарджыни
G21:26:02/megasquirt/2/555/мегаскирт
G21:26:07/model/3345/1733234/тойота преви€ куплю
YA21:26:07/vw/2380/906019/маклюра адамово €блоко
M21:26:36/model/4317/2225306/скачать игры дл€ айфона
YA21:26:49/model/2545/1304304/ ак повысить словарный запас
G21:27:12/model/1714/893723/нивесту трахнули на свадьбе
G21:28:50/model/3961/2055320/канал зоопарк
G21:28:53/vw/3547/1342495/вдуй
M21:29:26/model/4219/2179696/смартон ру
M21:30:04/model/3376/1750964/гарбушка
G21:30:08/vw/403/145758/хищьники
G21:30:17/model/4897/2517494/розали€ ломбардо
G21:30:21/vw/1599/586120/furi_kuri@mail.ru
YA21:30:41/golf-stream/12/2001/классные ники
M21:31:07/vw/1394/500399/гарбушка
G21:31:20/vw/1649/606487/furi_kuri@mail.ru
YA21:31:34/vw/2226/840649/мамонов все сволочи
G21:31:47/vw/2117/794212/пицка
YA21:31:49/model/4682/2409479/в €блачка
G21:31:54/honda/683/203249/€китори€ на удальцова
YA21:32:12/model/2956/1522890/–Ї–∞–Ї–Њ–є –Ї–Њ—Б—В—О–Љ —Г –±–∞–ї–µ—А–Є–љ—Л?
G21:32:33/model/438/250009/что такое Ў√
R21:32:38/honda/683/203176/как накуритс€
G21:32:53/model/1154/613057/пиздец скоро\
G21:32:54/vw/1121/393165/собака умерла
G21:32:56/model/2847/1464981/насру
G21:33:11/vw/1121/393165/собака умерла
YA21:33:24/kurilka/49/19844/ћ≈Ћќƒ»я ћ≈—“ќ √”ƒ ј YFCNHJBNM
YA21:33:45/golflab/118/26426/распиновка эбу
AB21:34:04/auspuff/7/841/глушители дл€ kia
YA21:34:05/model/1219/640770/ все дл€ айпода иры
YA21:34:13/vw/2837/1087729/12 « «
AB21:34:29/auspuff/7/глушители дл€ kia
G21:34:59/model/177/105350/бл€ ћ јƒ
G21:34:59/model/4511/2316991/зиксель 660
YA21:35:33/auspuff/26/3096/коллектор выпускной civic
G21:36:05/model/1184/626219/—игареты Ѕенсон и ’еджес
YA21:36:23/model/4646/2389382/всЄ дл€ симбиана
YA21:36:23/model/3628/1889508/Ёй вставай вставай
YA21:36:46/megasquirt/2/555/как собрать мегаскирт
YA21:37:15/vw-club/4/228/как съездить в ¬ильнюс
YA21:37:28/honda/1001/276943/ауди а7
G21:37:50/vw/877/307362/наказать нежно
M21:37:56/model/3851/1999638/падольск
YA21:38:25/kurilka/266/121968/как елка пускает корни
G21:40:17/nissan/19/6201/фотки мачо
YA21:40:29/golflab/118/26426/распиновка эбу
YA21:41:03/kurilka/79/34060/www.getmovies.ru
YA21:41:27/golflab/84/19491/вли€ет ли качество масла на давление
M21:41:35/model/4222/2181188/афто камри 35
G21:41:39/model/2808/1443125/бл€ скукота
G21:42:27/model/5644/2905817/споло
G21:42:51/model/4348/2240304/боканчино
YA21:42:56/model/5710/2939308/линкольн мкх
YA21:43:07/model/2479/1271065/ѕатроны на козу
G21:43:15/model/4361/2247403/"тревожна€ музыка"
YA21:43:50/model/5628/ поесть буйабес в нице
YA21:44:38/model/3876/2011921/минетик с проглотом
M21:44:49/vw-club/19/1528/схема ремень генератора ‘ольксваген √ольф 4
YA21:45:09/vw/1881/696529/free-av.com
G21:45:10/model/3323/1719645/мазирати
G21:45:24/model/4036/2091285/автомат —ћ√
G21:45:40/model/4361/2247403/тревожна€ музыка
YA21:45:43/honda/1353/345604/ћо€ подруга ходит гола€
YA21:45:46/honda/1042/286272музыка с мультфильма алладин
YA21:45:58/model/2472/1267743/курсы ба€нистов
G21:46:23/vw/1919/713381/транссексуал-это
G21:46:25/model/5211/2673711/второй константинопольский собор
G21:46:35/vw/3101/1188510/все конем
YA21:46:37/model/4645/2389067/смотришь мне в глаза сколько можно лгать
G21:48:28/model/1133/602805/лысый лох
G21:48:35/honda/1170/311369/если кончилс€ полис осаго
G21:48:54/honda/1170/311369/если кончилс€ полис осаго
G21:49:01/honda/1170/311369/если кончилс€ полис осаго
G21:49:39/model/4956/2546737/метилформиат
YA21:49:46/vw/3018/1153973/попа в стрингах
M21:50:59/model/4634/2383045/таджикские девушки модели
G21:51:08/model/4956/2546922/метилформиат
YA21:51:20/golflab/70/15541/звен€т контакты в выключателе
YA21:51:22/16v/4/241/golf rally
YA21:51:32/fishing/1/21/мелкашка
YA21:51:52/kurilka/10/3166/снегурочка пелотка
G21:52:09/honda/912/255063/групповые задани€
YA21:52:13/model/1043/560374/baby aga aga
YA21:52:25/16v/4/241/golf rally
G21:52:36/model/753/413511/генератор дл€ соседей
M21:52:53/vw/3024/мастурбацы€ фото
G21:52:55/vw/3349/1275664/ лаус Ѕарбье
G21:53:36/vw/202/78477/разморозка замков
YA21:53:50/model/1310/688051/образец бизнесс-плана
YA21:53:58/model/407/235035/сильно худые модели фото
YA21:53:59/golf-stream/33/5024/корректировка фар
YA21:54:20/model/2852/1467908/murmur van cleef
YA21:54:20/model/4177/2158253/ѕ≈ƒј‘»Ћџ — ƒ≈¬ќ„ јћ»
M21:54:24/model/2261/1161522/–есторан ∆и есть
YA21:54:31/model/2852/1467908/murmur van cleef
YA21:55:20/vw/3392/1291646/длинный шмель ты в кибитку не ходи
G21:55:35/vw/1888/699504/аморфофаллюс
G21:56:12/model/5156/2645120/Ё¬ћ в армии
G21:57:01/vw/3511/1331725/rammstein sonne русска€ 320
G21:57:13/vw/2097/786656/7 значную аську
G21:57:36/model/5749/2959269/москвичевска€ резина
YA21:59:03/model/4710/ виски mansion house
G22:00:19/model/3025/1557361/тигр стоит
G22:00:34/vw/2683/1028522/скипидаром намажь
G22:00:45/model/4540/2331173/zip code - это
G22:01:14/vw-club/3/3044/zip code - это
M22:01:22/vw/2345/890302/јрм€нские обычии
G22:01:29/model/5659/2912960/давай встречатьс€
YA22:02:14/renault/10/2567/ответы на задачи по эконометрике
YA22:02:15/auspuff/13/caldina>-t
AP22:03:17/model/5357/2751141/магазин метро
YA22:03:27/vw/2342/888993/партишин меджик
G22:03:27/model/3586/1867843/ћазерати ћистраль  упе
M22:03:53/model/2681/1380738/ девушек надувает матрас
G22:04:10/model/2643/1358715/дешево хорошо не бывает
YA22:04:54/vw/3058/1170450/рыбалка 2 верси€ 1.1.1
YA22:05:43/honda/146/44494/лубовное смс
YA22:05:49/golflab/64/14314/как проверить таблетку на генераторе valeo
R22:06:10/golflab/116/25934проходимость Nokian i3
G22:06:34/golf-stream/31/4697/что такое резонатор
M22:06:51/model/1565/819608/галаперидол
YA22:07:08/model/5512/2834246/кадавр неудовлетворенный
YA22:07:15/vw/1387/497517/как преобразовать pps в ppt
M22:07:20/vw-club/33/2776/cd-ченжер
G22:08:16/model/2294/1177074/Ћещенко прощай со всех вокзалов поезда mp3
G22:08:19/vw/2698/1033860/рожи у нас у всех хороши
R22:08:40/honda/558/порновидеоархив
YA22:08:49/golf-stream/30/4625/www.passat-b5.ru/index.php
G22:08:58/vw/267/100923/в гальюне
M22:09:23/model/1565/819608/галаперидол
R22:10:50/honda/530/164298/фотографии смерти
G22:11:36/model/4484/2304415/pikasa
G22:11:41/model/5441/2797233/PSP3  ј  ѕќƒ Ћё„»“№
YA22:12:07/golflab/89/20467/взаимозамен€емые запчасти шкода фелици€
G22:12:13/vw/2650/1017064/„его ты моргаешь как
YA22:12:23/vw/3728/1398123/901 оператор
G22:12:57/model/3891/2019713/опытные телки со стажем
YA22:13:28/vw/1148/акустика фанкшн
YA22:13:33/vw/3253/1243868/оношко анастаси€
YA22:13:45/model/3887/2017249/спросите мен€ о чем-нибудь
G22:14:00/model/395/228022/Ћайза минелли money
G22:14:08/model/5875/3027070/джинг беллс
YA22:14:11/honda/578/176785/новогодние стенгазеты
YA22:14:12/model/24/14245/фильм форэст гамп
YA22:14:31/vw/2788/1068378/“ехнологии мумифицировани€
YA22:14:45/honda/367/115780/страпонить
M22:14:49/model/2544/1303803/массажоры дл€ шеи
YA22:15:00/model/2802/1440153/Grant's Fam 1л
YA22:15:20/golf-stream/12/2001/?all=nклассный ник
YA22:15:42/vw/2764/1059099/рецепт приготовлени€ кимчи
G22:15:45/vw/1675/616560/неро экспресс
G22:15:48/model/4898/2518131/земл€ стоит на слонах
G22:16:05/model/2531/1296920/географический кретинизм
G22:16:34/model/2907/1497518/фаршированные памидоры
M22:17:08/nissan/27/8728/разборка на осташковском шоссе
YA22:17:22/honda/83/25769/прар.ру
G22:17:31/model/1347/707277/челдун
YA22:17:43/honda/42/12593/петек филип
G22:17:57/model/1910/997553/сдлка или не
G22:18:06/model/1910/997548/сдлка или не
G22:18:06/model/1910/997548/сдлка или не
YA22:18:34/vw/3621/1366671/что такое бутират
G22:19:06/vw/3396/1293044/„ебуратино
YA22:19:12/model/2556/1310041/пирог с селЄдкой
M22:19:41/kurilka/36/14023/топлис
YA22:20:35/renault/7/1874/игра каменное лицо
YA22:20:49/kurilka/49/20033/куннигулис
G22:20:57/model/1650/860378/разр€жалась
YA22:21:06/vw/3344/1274185Rammstein dts
G22:21:28/model/2479/1271328/нокавы
G22:21:42/vw/2481/945511/куйтебе
YA22:21:44/vw/3621/1366646/джипиэс навигатор
G22:21:46/model/4686/2411318/мандалаи
YA22:22:01/model/2030/1053871/весы от 0.1 грамма
YA22:22:10/honda/547/169396/классическа€ порнуха
YA22:22:51/model/2802/1440153/ликер xuxu
YA22:23:18/model/612/342707/первинтин
YA22:23:42/honda/1175/ремонт AVS хонда
YA22:24:03/honda/1042/286272алладин мультфильм
YA22:24:07/model/805/441734/наркоз кайф
G22:24:20/model/1153/612373/косматый облак
M22:24:42/nissan/5/1458/зоопорно
YA22:24:49/vwagainst/16/4359/абонент временно заблокирован
YA22:25:08/vw-club/17/1398/масло в двигателе vw golf5
YA22:25:21/honda/141/43122/торчащие соски
YA22:25:47/vw/584/196755/справка из физкультурного диспансера
YA22:26:06/honda/367/115694/вуаиристы
M22:26:18/vwagainst/26/8149/инструкци€ mfa golf 2
G22:26:24/model/2833/1456512/е-banking
YA22:26:26/vw/584/196755/справка из физкультурного диспансера
M22:26:28/golflab/89/20630/катушка зажигани€ ваз2108
YA22:26:32/model/3615/1883169/жеское порно
G22:26:53/model/3106/1600553/как двд перевести в ави
G22:27:07/model/5862/3019593/qip9018/.
G22:27:10/vw/1599/586120/furi_kuri@mail.ru
G22:27:16/vw/1599/586120/furi_kuri@mail.ru
YA22:27:17/auspuff/17/2138/кислородный датчик на каризме 1,8 4G93
G22:27:19/vw/1649/606487/furi_kuri@mail.ru
YA22:27:22/kurilka/10/3130/—исъки
G22:27:32/model/5112/2625483/лексус гх 470
YA22:27:35/vw-club/17/1398/масло в двигателе vw golf5
G22:27:52/model/5043/2591076/«¬” ќ¬јя  ќћћ”Ќ» ј÷»я
YA22:28:00/model/2996/1542023/оксилококцинум
G22:28:06/model/2302/1180901/коровь€ жопа
G22:28:10/model/2302/1180901/коровь€ жопа
M22:28:12/nissan/5/1458/зоопорно
G22:28:13/model/5736/2952874/выходишь здесь, ну
M22:28:39/model/4441/2284353/ќп€ть метель и маетс€ былое в темноте
YA22:28:56/honda/1400/353081/циндау
YA22:29:21/vw/306/113872/non-existent domain
YA22:29:36/vw/2512/958392/метро2
YA22:29:47/model/3165/1634532/тирс фо фирс
G22:29:47/model/1550/811535/очки рейбен
YA22:30:35/vw/1379/494125/животные иноходцы
YA22:30:46/vw/1379/494125/животные иноходцы
G22:31:48/model/5859/3018018/вывад
G22:31:58/vw/2509/957347/вывад
YA22:32:02/koleso/3/207/продаем резину 31
YA22:32:06/kurilka/174/80050/–Ї–∞–Ї –Њ—В—Б—В–Є—А–∞—В—М –Ј–µ–ї—С–љ–Ї—Г?
M22:32:13/golflab/84/19370/обратный клапан тнвд
YA22:32:18/model/2461/1261720/тетки голые
G22:32:42/auspuff/17/2072/пламегаситель расход
G22:33:02/model/5666/2916929/гавницо
G22:33:07/model/1080/578101/гавницо
YA22:33:08/model/2087/1079459/страпонщица
YA22:33:20/golflab/107/24267/дроссельна€ заслонка + AkQ
YA22:33:51/model/1655/862429/красивые и голые на рабочий стол
YA22:34:14/vw-club/12/888/Ѕлижний свет passat b5
G22:35:22/model/4095/2119437/сломали телефон
M22:35:32/model/3672/1911708/аднакласники
YA22:35:36/honda/518/160901/женский ананизм
YA22:35:50/model/2414/1237800/фактурна€ внешность
G22:36:39/model/597/335863/спички стоили
M22:36:55/golflab/124/27472/ mfa golf 2
YA22:37:07/model/3634/1892470/клафилин достать
YA22:37:10/model/4317/2225306/игры дл€ айфона
G22:37:12/vw/147/58334/шопенгаура
YA22:37:13/model/1492/781432/жосткое порево
YA22:37:15/model/1580/827873/–Ь–∞–Љ–∞ —Б—В–∞—А—И–µ —Б–≤–Њ–µ–≥–Њ —Б—Л–љ–∞ –љ–∞ 21 –≥–Њ–і. –І–µ—А–µ–Ј —И–µ—Б—В—М –ї–µ—В –Њ–љ–∞ –±—Г–і–µ—В —Б—В–∞—А—И–µ –µ–≥–Њ –≤ –њ—П—В—М —А–∞–Ј. –Т–Њ–њ—А–Њ—Б: –У–і–µ –њ–∞–њ–∞?
G22:37:51/model/479/272199/преувиличивать
YA22:37:57/vw/2914/1115820/» мы садимс€ за ро€ль снимаем
YA22:38:09/model/4412/2270691как закачать музыку в айпод
G22:38:11/vw/2740/1049740/171919379A
YA22:38:43/vwagainst/21/6457/анекдот про барабаку
G22:39:15/model/956/519920/пелоточки
G22:39:23/model/210/124308/не надо лохматить бабушку
G22:39:29/model/777/426914/ что такое напор
G22:39:36/model/479/272199/преувиличивать
G22:39:43/model/3807/1977509/ апитан ∆уров
G22:39:49/model/4262/2200548/ѕлан "√олгофа"
G22:40:23/model/479/272199/преувиличивать
YA22:40:32/rally-club/1/23/подрамники кузова ваз
YA22:41:13/golflab/74/16926/на оборотах пищит давление passat b3
YA22:41:16/honda/367/вуаиристы
YA22:41:21/vw/1268/449474/отношение автора к Ѕульбе
YA22:41:21/model/688/382470/individualki.ru
G22:42:07/model/121/74028/толстые вафли
YA22:42:09/vw/305/113653/“ереза ќрловска€
G22:42:10/model/2773/1426122/allroud
M22:42:44/golflab/89/20630/катушка зажигани€ ваз2108
G22:43:03/honda/1110/298871/гавно маманта
M22:43:16/golflab/89/20630/катушка зажигани€ ваз2108
M22:43:24/golflab/89/20630/катушка зажигани€ ваз2108
M22:43:26/golflab/89/20630/катушка зажигани€ ваз2108
YA22:43:31/nissan/5/1458/зоопорно
YA22:44:43/honda/1069/291561/1р за 30000
G22:44:54/model/1213/638282/групавухи
YA22:44:55/auspuff/14/1660/Pro Sport TWIN SOUND
G22:45:22/vw/1376/492740/купить гольф 1.8 т
G22:45:34/model/777/426914/что такое напор
YA22:45:35/tushkan/5/922/VW passat американец
G22:47:09/model/2496/1279786/allroud
YA22:47:23/honda/20/5229/проститутки от 30 до 45
G22:47:23/honda/583/178211/выбор портвейна
YA22:47:25/model/5569/рецепт мамахуаны
G22:47:45/model/1043/560301/пугачова
G22:48:10/model/2781/1430504/bogner пуховики
G22:48:17/model/478/271090/«ла. ÷инична. ѕохотлива. ¬здорна
G22:48:24/model/3658/1904721/драчилава
G22:48:26/vw/2940/1125696/маздоводы
YA22:48:43/auspuff/28/выхлоп
G22:49:05/model/4455/2290946/дриалит
G22:49:09/model/4173/2156413/“амарилла
G22:49:19/honda/728/214179/хуй грузина
YA22:49:37/auspuff/2/182/паук на ваз 2107
YA22:49:51/model/1562/818013/зоофилы
M22:50:00/honda/342/наручнки с мехом
YA22:50:12/boards/трынделка
R22:50:36/vw-club/2/119/не читаетс€ номер на двигателе
G22:50:38/model/2775/1427513/петинга
G22:50:42/model/125/76608/перва€ теорема вейерштрасса
G22:51:08/model/5137/2636349/гал€ балована
YA22:51:51/photo/3/777/zoombrowser скачать
G22:53:45/model/5861/3019044/Ќакуй с пл€жа
G22:54:23/vw/2945/1127793/—ѕ»ЅЋя
G22:55:17/vw/2862/1096936/когда бывает хорошее настроение
G22:55:23/vw/2734/1047070/money shmoney if you haven't got love
G22:55:41/vw/2734/1047070/money shmoney if you haven't got love
YA22:55:58/vw/3655/1376818/ћазда —’7 говно
G22:56:02/vw/291/108842/самодельный керхер
YA22:56:41/vw/3621/1366671/что такое бутират
G22:58:19/vw/3244/1240439/купить канторез
G22:58:33/vw/1155/406431/ѕринцип —тудента
M22:58:57/model/2112/пакажи на видЄ скс
M22:58:57/model/2112/пакажи на видЄ скс
G22:59:39/vw/1557/568282/маленькие пальцы
G23:00:04/model/3672/1911708/аднакласники.ру
G23:00:31/model/4303/2218646/хуев пачку
M23:00:38/golflab/64/14327/ стратер не крутит
G23:00:51/model/3672/1911708/аднакласники.ру
YA23:01:22/model/4116/2129401/если заебывает
G23:01:56/model/769/421577/ѕ–»¬ј“ √ќЋƒ
YA23:02:54/renault/62/16329/пор€дочно давно
R23:03:18/vw/2299/871770/?all=n¬о многом знании много печали
YA23:04:17/model/3568/1858485/италь€нский кандел€бр
M23:06:00/model/3605/1878523/скачать анти вирус бесплатно
G23:06:01/model/707/391655/nikkuvad
YA23:06:14/honda/1081/293775/пиздища
G23:06:35/vw/3767/1409705/чипсвей
YA23:06:40/model/2455/1258584/как доехать до тамбова
YA23:07:10/megasquirt/1/20/ ћегаскирт 2
YA23:07:30/auspuff/1/89/паук на ваз 2107
YA23:07:46/vw-club/37/3124/технологи€ восстановлени€ моста автомобил€ сваркой
M23:08:01/model/552/312325/парнаграфические фильмы
G23:08:05/model/3280/1695848/апендицит слева
G23:08:21/model/4611/2370180/тирминатор 4
YA23:08:23/kurilka/75/художественные книги про айтишнеков
G23:08:26/golf-stream/38/5623/Abs golf 3
YA23:08:36/model/698/386941/летал на боинг 777
AB23:08:39/model/1949/1017777/www.devi.ru
YA23:08:39/model/4069/2106693/венеци€ балашиха
G23:08:42/vw/1841/678917/арбидол последстви€
YA23:08:53/golf-stream/23/3652/как подход€т к поводкам стеклоочистители
YA23:09:06/model/4136/2138877/ник plumbum
YA23:10:09/vw/3015/1153299/порнуха+
M23:10:26/vw/2071/775377/как перестать тупить
G23:10:36/honda/66/20817/пропротэн100
G23:11:33/vw/1207/425922/гуталакс
YA23:11:41/vw-club/41/3446/ акое масло заливают в фольксваген на заводе
G23:11:45/model/1574/823942/костюм снедурочки
YA23:12:47/nissan/14/4526/дам, но ни вам
YA23:12:49/vw/3462/1315180/пролижни
G23:13:15/honda/66/20817/пропротэн100
YA23:13:26/model/2608/1338790/томм фарр
G23:13:36/model/5733/2951412/партизан фото газ 66
YA23:13:54/honda/249/79298/сисечки
G23:14:13/megasquirt/2/559/эбу megasquirt
YA23:14:38/golf-stream/38/5625/ремонт кпп golf3
G23:14:45/model/3312/1713755/√≈…–”
YA23:15:24/renault/7/1883/как таксовать
YA23:15:37/renault/7/1883/как таксовать
YA23:15:56/golflab/131/28644/ремонт кпп golf3
M23:18:05/golfclub/53/всЄ о mfa golf 2
YA23:19:39/golflab/106/24056/регулировка кулисы
YA23:20:07/vw/2872/регулировка кулисы
R23:20:31/auspuff/11/1345/„то такое универсальный
G23:20:31/honda/240/76547/мокрай
YA23:20:38/vw/3462/1315180/пролижни
YA23:20:39/model/3133/1615592/значит хорошие сапоги надо брать
M23:21:04/nissan/5/1458/зоопорно
YA23:21:05/model/1884/984140/–≥–і–µ? —Б–Ї–Њ–ї—М–Ї–Њ? –Љ–Є–љ–µ—В –±–µ–Ј —А–µ–Ј–Є–љ–Ї–Є
G23:21:55/model/3162/1632742/"высылайте безпилотный модуль"
YA23:22:16/model/3672/1911708/аднакласники.ru
YA23:22:22/honda/1073/292383/колотушка тук тук тук спит животное паук
YA23:22:37/model/2589/1328301/классные сиськи
YA23:22:46/kurilka/76/32878/после корпоратива секс
YA23:22:48/model/4725/2430449/warfdale
M23:22:57/vw/3335/1271054/цены на хонду джазз
G23:23:36/model/4350/2241227/кол€ сказал
G23:23:49/model/3434/1784934/вощемта
YA23:23:58/model/3500/1822307–Ї–∞–Ї –њ–Њ–Љ–µ–љ—П—В—М –Љ–µ—Б—В–Њ —А–ґ–і–µ–љ–Є—П –≤ –њ–∞—Б–њ–Њ—А—В–µ?
YA23:24:07/kurilka/203/93846/Ќикас —афроноф
G23:24:21/model/1637/854121/ћарк-2 нож
G23:24:24/megasquirt/2/356/ќписание обработки дад
G23:24:30/model/5658/2912852/пиздарики
YA23:25:03/model/2918/1502731/классные сиськи
G23:25:06/renault/24/6631/перуанска€ крыса
G23:25:07/model/2751/1414648/+7919 оператор
YA23:25:19/vw-club/17/1346/ƒ»Ќјћ» » 16 PASSAT B3
G23:25:33/model/2751/1414648/+7919 оператор
G23:26:00/model/3672/1911708/аднакласн≥к≥
G23:26:25/renault/51/13949/зоофели€
YA23:26:34/model/3619/1885421/и шестикрылый серафим на перепутье мне €вилс€
YA23:26:49/photo/2/505/ѕинакле 9
M23:26:49/model/1053/564962/lovemail.ru
G23:27:10/model/4171/2155315/одножопники
G23:27:28/model/5198/2667175/кафе дантес
YA23:27:35/ps/4/554/разъем обд-2
YA23:27:37/honda/1189/314561/keep4
M23:28:13/honda/1389/351146/кады на мафи€
G23:28:29/vw/1516/550205/менс хелс
YA23:29:17/golflab/5/723/sw54
G23:29:18/model/1197/631280/јна Ќетрепко
M23:29:20/model/4249/2194007/јйфон со стразами
G23:29:37/model/1725/899239/самсунг.ру
G23:31:10/megasquirt/1/210/mpx4250ap
YA23:32:40/model/3119/1608044/св€зать носки с олен€ми
G23:33:19/model/5072/2605361/каско регресс осаго
YA23:33:46/vw/3306/1262277/отмазка от корпоратива
G23:34:29/model/4036/2091140/Ёдуарда-јнри јврил€.
YA23:35:40/golflab/95/21950/регулировка кулисы
YA23:36:56/vw/2533/966847/’’’
G23:37:08/model/2477/1270255/материальность мысли
YA23:37:14/vw/2508/956260/’’’
G23:38:11/vw/3777/1412646/ѕроблемы негров шерифа неебут
YA23:38:53/honda/679/202337/fdnjnjntv'
G23:39:39/vw/80/33190/рецепты €дов
YA23:40:52/model/3500/1822307хочу помен€ть место рождени€ в паспорте
G23:41:02/vw/1736/639512/купить авиационный керосин
G23:41:35/model/3123/1610618/pisde
G23:42:17/model/3898/2022546/студент бл€
M23:42:59/golflab/70/15510/таблица mfa golf 2
YA23:43:56/vw-club/24/2068/volkswagen инструкцию скачать
G23:44:10/model/1246/653944/тифун
M23:44:34/honda/982/271866/ћетилбензилкетон где примен€етс€
G23:44:54/model/3640/1895476/тифун
G23:45:25/model/4700/2418502/машына волга
YA23:45:55/model/4215/2177988/—З—В–Њ –і–µ–ї–∞—В—М? –Њ–±–љ–∞—А—Г–ґ–Є–ї–∞ –≤–Љ—П—В–Є–љ—Г –љ–∞ –њ—А–∞–≤–Њ–є –њ–µ—А–µ–і–љ–µ–є –і–≤–µ—А–Є
G23:46:12/vw/1244/440649/скачать ченить
YA23:46:17/vw/501/174365/схема электронного умножител€
G23:46:58/vw/1320/468596/скачать ченить
G23:47:06/vw/1320/468596/скачать ченить
YA23:47:08/vw/3620/1366456/письки нет
YA23:47:13/model/1327/697030/телки в фотошопе
YA23:48:26/golflab/124/27404/почему потеют стекла в гольфе 3
YA23:48:53/model/3572/1860878/чем приклеить к кафелю
G23:49:53/vw/468/164403/пьезоприор
YA23:50:18/vwagainst/52/15858/2108 ралли продам
G23:50:27/model/1279/671771/валькирией.
YA23:50:31/model/4646/2389795/что такое креведко
YA23:50:38/model/4204/2171786/мазда 3 мпс
YA23:50:51/vwagainst/52/15858/?all=n2108 ралли продам
G23:51:10/vw/2170/815643/ѕолезных ископаемых нет воды нет
YA23:51:21/renault/34/9231/к чему чешетс€ лева€ грудь
G23:51:22/model/4546/2334673/прайс ритейл
YA23:51:35/kurilka/122/54513/тройчатка эвалар
G23:51:41/model/4526/2322635/от алкогол€ тупеют
N23:51:46/model/2670/1374058/зуд в анале
YA23:51:58/model/3500/1822307помен€ть место рождени€
G23:52:14/model/1267/665171/зубы после блевани€
YA23:52:16/model/3500/1822307помен€ть место рождени€
YA23:52:29/model/1642/856495/агва
YA23:52:48/model/2087/1079459/страпонщица
YA23:52:54/kurilka/122/54513/тройчатка эвалар
YA23:53:24/model/2937/шишига
G23:53:31/model/3650/1899975/мисс мгу
YA23:53:56/vw-club/3/187/vw country
YA23:54:56/model/3336/1726784/анастаси€ лыкова
R23:55:05/vwagainst/25/7768/?all=nвас разыскивают
AP23:55:10/kurilka/232/106970/фото под юбкой
G23:55:22/model/1868/974974/салат из силетки
G23:56:22/model/1868/974974/салат из силетки
G23:56:41/vw/818/283184/занимаца любовью
YA23:56:58/vw/2537/968996/B3 15 резина
YA23:57:52/vw/2537/968996/B3 15 резина
YA23:58:07/vw/2537/968996/B3 15 резина
G23:58:18/model/1714/893723/невесту трахнули
YA23:58:51/vw-club/27/2266/B3 15 резина
M23:59:04/renault/10/13837/решить задачу по макроэкономике

»того: 2973
yandex: 1425
google: 1213
go.mail.ru: 256
rambler: 79
nigma: 12
all.by: 11
aport.ru: 9
search.live.com: 2
poisk.ru: 2
search.tut.by: 1
yahoo: 1

 онфа © osudim.org [–аботает с 27.06.2001]
¬се авторские права принадлежат авторам сообщений и охран€ютс€ законом.
ќтветственность за содержание сообщений несут их авторы.